PIA757 OPLA-EGLL
Flight info
| Callsign | PIA757 |
|---|---|
| Flight time | 7h 31m |
| Altitude | 34000 |
| Route | AKBER T400 INDEK L509 NONIB J165 HANGU G796 LAJAK L509 TAPIS M875 AMDAR/K0900F340 T186 LAPZE Z407 ODIVA M161 ADAKA/K0880F360 M161 URL M166 ARISA L736 ASKIL L979 AGNUL/K0887F380 L979 GRD L32 SOTET/N0479F380 DCT BINKA L23 BERIM DCT STADE L23 WSN DCT ABNED L980 LOGAN |
| Aircraft | B772/H-SDE2E3FGHIJ5LORVWXY/LB1D1 |
Departure
| Time | 2026-04-10 03:40 |
|---|---|
| Airport | Allama Iqbal International Airport (OPLA) |
Arrival
| Time | 2026-04-10 11:12 |
|---|---|
| Airport | London Heathrow Airport (EGLL) |
| Time | Latitude | Longitude | Altitude | Speed | Heading |
|---|---|---|---|---|---|
| 2026-04-10 03:15 | 31.52036 | 74.40934 | 725 ft | 0 kts | 91° |
| 2026-04-10 03:30 | 31.52036 | 74.40933 | 725 ft | 0 kts | 91° |
| 2026-04-10 03:30 | 31.52037 | 74.40918 | 725 ft | 3 kts | 91° |
| 2026-04-10 03:31 | 31.52037 | 74.40895 | 725 ft | 3 kts | 91° |
| 2026-04-10 03:31 | 31.52037 | 74.40877 | 725 ft | 3 kts | 97° |
| 2026-04-10 03:31 | 31.52041 | 74.40858 | 725 ft | 3 kts | 128° |
| 2026-04-10 03:31 | 31.52050 | 74.40848 | 725 ft | 3 kts | 168° |
| 2026-04-10 03:32 | 31.52068 | 74.40846 | 725 ft | 3 kts | 183° |
| 2026-04-10 03:32 | 31.52081 | 74.40847 | 725 ft | 0 kts | 181° |
| 2026-04-10 03:34 | 31.52078 | 74.40847 | 725 ft | 3 kts | 181° |
| 2026-04-10 03:35 | 31.52019 | 74.40845 | 725 ft | 13 kts | 181° |
| 2026-04-10 03:35 | 31.51902 | 74.40841 | 725 ft | 19 kts | 182° |
| 2026-04-10 03:35 | 31.51775 | 74.40839 | 725 ft | 15 kts | 180° |
| 2026-04-10 03:35 | 31.51710 | 74.40809 | 725 ft | 9 kts | 252° |
| 2026-04-10 03:36 | 31.51710 | 74.40738 | 725 ft | 9 kts | 270° |
| 2026-04-10 03:36 | 31.51691 | 74.40667 | 725 ft | 10 kts | 206° |
| 2026-04-10 03:36 | 31.51608 | 74.40658 | 725 ft | 14 kts | 180° |
| 2026-04-10 03:36 | 31.51502 | 74.40656 | 725 ft | 16 kts | 181° |
| 2026-04-10 03:37 | 31.51383 | 74.40653 | 725 ft | 18 kts | 181° |
| 2026-04-10 03:37 | 31.51256 | 74.40650 | 725 ft | 19 kts | 181° |
| 2026-04-10 03:37 | 31.51127 | 74.40648 | 725 ft | 18 kts | 179° |
| 2026-04-10 03:37 | 31.51002 | 74.40648 | 725 ft | 17 kts | 180° |
| 2026-04-10 03:38 | 31.50885 | 74.40645 | 725 ft | 16 kts | 181° |
| 2026-04-10 03:38 | 31.50775 | 74.40625 | 725 ft | 16 kts | 204° |
| 2026-04-10 03:38 | 31.50694 | 74.40549 | 725 ft | 15 kts | 228° |
| 2026-04-10 03:38 | 31.50658 | 74.40447 | 725 ft | 14 kts | 287° |
| 2026-04-10 03:39 | 31.50696 | 74.40427 | 725 ft | 5 kts | 22° |
| 2026-04-10 03:39 | 31.50723 | 74.40431 | 725 ft | 0 kts | 359° |
| 2026-04-10 03:39 | 31.50725 | 74.40431 | 725 ft | 3 kts | 359° |
| 2026-04-10 03:39 | 31.50934 | 74.40435 | 725 ft | 65 kts | 1° |
| 2026-04-10 03:40 | 31.51613 | 74.40447 | 726 ft | 130 kts | 1° |
| 2026-04-10 03:40 | 31.52719 | 74.40462 | 745 ft | 184 kts | 360° |
| 2026-04-10 03:40 | 31.54070 | 74.40442 | 1277 ft | 198 kts | 358° |
| 2026-04-10 03:40 | 31.55418 | 74.40363 | 2286 ft | 194 kts | 356° |
| 2026-04-10 03:41 | 31.56789 | 74.40269 | 2944 ft | 200 kts | 352° |
| 2026-04-10 03:41 | 31.58156 | 74.39726 | 3163 ft | 217 kts | 334° |
| 2026-04-10 03:41 | 31.59452 | 74.38693 | 3364 ft | 235 kts | 322° |
| 2026-04-10 03:41 | 31.60776 | 74.37453 | 3684 ft | 250 kts | 321° |
| 2026-04-10 03:42 | 31.62168 | 74.36146 | 4125 ft | 260 kts | 321° |
| 2026-04-10 03:42 | 31.63569 | 74.34829 | 4864 ft | 258 kts | 321° |
| 2026-04-10 03:42 | 31.64969 | 74.33510 | 5571 ft | 258 kts | 321° |
| 2026-04-10 03:42 | 31.66385 | 74.32177 | 6187 ft | 262 kts | 320° |
| 2026-04-10 03:43 | 31.67818 | 74.30828 | 6779 ft | 265 kts | 321° |
| 2026-04-10 03:43 | 31.69264 | 74.29465 | 7414 ft | 267 kts | 321° |
| 2026-04-10 03:43 | 31.70698 | 74.28114 | 7989 ft | 269 kts | 321° |
| 2026-04-10 03:43 | 31.72167 | 74.26728 | 8588 ft | 272 kts | 321° |
| 2026-04-10 03:44 | 31.73651 | 74.25326 | 9128 ft | 275 kts | 321° |
| 2026-04-10 03:44 | 31.75144 | 74.23916 | 9769 ft | 274 kts | 320° |
| 2026-04-10 03:44 | 31.76615 | 74.22527 | 10532 ft | 270 kts | 320° |
| 2026-04-10 03:44 | 31.78099 | 74.21126 | 10977 ft | 279 kts | 320° |
| 2026-04-10 03:45 | 31.79653 | 74.19658 | 11238 ft | 293 kts | 320° |
| 2026-04-10 03:45 | 31.81284 | 74.18119 | 11438 ft | 310 kts | 320° |
| 2026-04-10 03:45 | 31.83003 | 74.16490 | 11631 ft | 326 kts | 320° |
| 2026-04-10 03:45 | 31.84818 | 74.14773 | 11855 ft | 342 kts | 320° |
| 2026-04-10 03:46 | 31.86695 | 74.12995 | 12301 ft | 351 kts | 319° |
| 2026-04-10 03:46 | 31.88613 | 74.11177 | 12875 ft | 356 kts | 319° |
| 2026-04-10 03:46 | 31.90552 | 74.09345 | 13528 ft | 358 kts | 319° |
| 2026-04-10 03:46 | 31.92493 | 74.07505 | 14215 ft | 360 kts | 319° |
| 2026-04-10 03:47 | 31.94432 | 74.05670 | 14805 ft | 364 kts | 319° |
| 2026-04-10 03:47 | 31.96433 | 74.03765 | 15450 ft | 366 kts | 319° |
| 2026-04-10 03:47 | 31.98394 | 74.01898 | 16031 ft | 369 kts | 319° |
| 2026-04-10 03:47 | 32.00400 | 73.99991 | 16611 ft | 372 kts | 319° |
| 2026-04-10 03:48 | 32.02422 | 73.98065 | 17160 ft | 374 kts | 319° |
| 2026-04-10 03:48 | 32.04454 | 73.96129 | 17692 ft | 377 kts | 319° |
| 2026-04-10 03:48 | 32.06501 | 73.94178 | 18224 ft | 379 kts | 318° |
| 2026-04-10 03:48 | 32.08555 | 73.92223 | 18788 ft | 380 kts | 318° |
| 2026-04-10 03:49 | 32.10613 | 73.90263 | 19330 ft | 381 kts | 317° |
| 2026-04-10 03:49 | 32.12678 | 73.88291 | 19850 ft | 382 kts | 317° |
| 2026-04-10 03:49 | 32.14755 | 73.86308 | 20325 ft | 383 kts | 317° |
| 2026-04-10 03:49 | 32.16838 | 73.84319 | 20804 ft | 384 kts | 316° |
| 2026-04-10 03:50 | 32.18921 | 73.82329 | 21262 ft | 386 kts | 316° |
| 2026-04-10 03:50 | 32.21003 | 73.80334 | 21722 ft | 386 kts | 316° |
| 2026-04-10 03:50 | 32.23065 | 73.78359 | 22115 ft | 388 kts | 316° |
| 2026-04-10 03:50 | 32.25194 | 73.76315 | 22478 ft | 390 kts | 315° |
| 2026-04-10 03:51 | 32.27284 | 73.74314 | 22885 ft | 391 kts | 315° |
| 2026-04-10 03:51 | 32.29399 | 73.72289 | 23313 ft | 391 kts | 315° |
| 2026-04-10 03:51 | 32.31515 | 73.70260 | 23690 ft | 392 kts | 315° |
| 2026-04-10 03:51 | 32.33635 | 73.68225 | 24033 ft | 394 kts | 315° |
| 2026-04-10 03:52 | 32.35766 | 73.66184 | 24397 ft | 395 kts | 314° |
| 2026-04-10 03:52 | 32.37909 | 73.64121 | 24715 ft | 397 kts | 315° |
| 2026-04-10 03:52 | 32.40053 | 73.62056 | 25122 ft | 397 kts | 314° |
| 2026-04-10 03:52 | 32.42197 | 73.59984 | 25420 ft | 399 kts | 314° |
| 2026-04-10 03:53 | 32.44360 | 73.57903 | 25700 ft | 402 kts | 314° |
| 2026-04-10 03:53 | 32.46509 | 73.55829 | 25945 ft | 405 kts | 314° |
| 2026-04-10 03:53 | 32.48695 | 73.53727 | 26242 ft | 406 kts | 314° |
| 2026-04-10 03:53 | 32.50893 | 73.51606 | 26553 ft | 408 kts | 314° |
| 2026-04-10 03:54 | 32.53102 | 73.49480 | 26864 ft | 409 kts | 314° |
| 2026-04-10 03:54 | 32.55319 | 73.47357 | 27188 ft | 410 kts | 314° |
| 2026-04-10 03:54 | 32.57541 | 73.45215 | 27481 ft | 411 kts | 313° |
| 2026-04-10 03:54 | 32.59757 | 73.43067 | 27779 ft | 412 kts | 313° |
| 2026-04-10 03:55 | 32.61986 | 73.40911 | 28073 ft | 413 kts | 313° |
| 2026-04-10 03:55 | 32.64214 | 73.38748 | 28367 ft | 414 kts | 313° |
| 2026-04-10 03:55 | 32.66440 | 73.36580 | 28633 ft | 415 kts | 313° |
| 2026-04-10 03:55 | 32.68672 | 73.34410 | 28880 ft | 417 kts | 313° |
| 2026-04-10 03:56 | 32.70924 | 73.32224 | 29084 ft | 419 kts | 313° |
| 2026-04-10 03:56 | 32.73176 | 73.30017 | 29334 ft | 417 kts | 312° |
| 2026-04-10 03:56 | 32.75225 | 73.27612 | 29568 ft | 411 kts | 305° |
| 2026-04-10 03:56 | 32.76967 | 73.24936 | 29835 ft | 406 kts | 298° |
| 2026-04-10 03:57 | 32.78412 | 73.22078 | 30105 ft | 403 kts | 295° |
| 2026-04-10 03:57 | 32.79787 | 73.19170 | 30382 ft | 402 kts | 294° |
| 2026-04-10 03:57 | 32.81125 | 73.16239 | 30634 ft | 402 kts | 294° |
| 2026-04-10 03:57 | 32.82423 | 73.13330 | 30820 ft | 403 kts | 293° |
| 2026-04-10 03:58 | 32.83686 | 73.10445 | 31073 ft | 403 kts | 293° |
| 2026-04-10 03:58 | 32.84990 | 73.07453 | 31268 ft | 404 kts | 293° |
| 2026-04-10 03:58 | 32.86282 | 73.04482 | 31427 ft | 405 kts | 292° |
| 2026-04-10 03:58 | 32.87577 | 73.01498 | 31705 ft | 404 kts | 292° |
| 2026-04-10 03:59 | 32.88862 | 72.98545 | 32026 ft | 402 kts | 292° |
| 2026-04-10 03:59 | 32.90141 | 72.95599 | 32299 ft | 401 kts | 292° |
| 2026-04-10 03:59 | 32.92717 | 72.89661 | 32484 ft | 405 kts | 292° |
| 2026-04-10 04:00 | 32.94011 | 72.86674 | 32645 ft | 406 kts | 292° |
| 2026-04-10 04:00 | 32.95305 | 72.83687 | 32868 ft | 405 kts | 292° |
| 2026-04-10 04:00 | 32.96589 | 72.80719 | 33099 ft | 404 kts | 292° |
| 2026-04-10 04:00 | 32.97876 | 72.77743 | 33269 ft | 404 kts | 292° |
| 2026-04-10 04:01 | 32.99160 | 72.74771 | 33483 ft | 403 kts | 292° |
| 2026-04-10 04:01 | 33.00443 | 72.71799 | 33644 ft | 403 kts | 292° |
| 2026-04-10 04:01 | 33.01725 | 72.68829 | 33807 ft | 403 kts | 291° |
| 2026-04-10 04:01 | 33.03004 | 72.65860 | 34015 ft | 403 kts | 291° |
| 2026-04-10 04:02 | 33.04285 | 72.62886 | 34138 ft | 404 kts | 291° |
| 2026-04-10 04:02 | 33.05552 | 72.59941 | 34144 ft | 406 kts | 292° |
| 2026-04-10 04:02 | 33.08149 | 72.53898 | 34145 ft | 411 kts | 292° |
| 2026-04-10 04:03 | 33.10759 | 72.47815 | 34145 ft | 412 kts | 292° |
| 2026-04-10 04:03 | 33.13362 | 72.41738 | 34147 ft | 411 kts | 292° |
| 2026-04-10 04:04 | 33.15964 | 72.35653 | 34147 ft | 411 kts | 292° |
| 2026-04-10 04:04 | 33.18562 | 72.29564 | 34149 ft | 412 kts | 292° |
| 2026-04-10 04:05 | 33.21162 | 72.23463 | 34151 ft | 413 kts | 292° |
| 2026-04-10 04:05 | 33.23748 | 72.17382 | 34151 ft | 413 kts | 292° |
| 2026-04-10 04:06 | 33.25927 | 72.12252 | 34146 ft | 413 kts | 292° |
| 2026-04-10 04:06 | 33.28530 | 72.06113 | 34147 ft | 414 kts | 292° |
| 2026-04-10 04:07 | 33.31130 | 71.99969 | 34148 ft | 414 kts | 292° |
| 2026-04-10 04:07 | 33.33739 | 71.93794 | 34150 ft | 417 kts | 291° |
| 2026-04-10 04:08 | 33.36348 | 71.87608 | 34152 ft | 421 kts | 291° |
| 2026-04-10 04:08 | 33.38993 | 71.81326 | 34154 ft | 423 kts | 291° |
| 2026-04-10 04:09 | 33.41634 | 71.75040 | 34156 ft | 422 kts | 291° |
| 2026-04-10 04:09 | 33.44271 | 71.68753 | 34158 ft | 422 kts | 291° |
| 2026-04-10 04:10 | 33.46898 | 71.62481 | 34159 ft | 422 kts | 291° |
| 2026-04-10 04:10 | 33.49526 | 71.56192 | 34160 ft | 422 kts | 291° |
| 2026-04-10 04:11 | 33.52153 | 71.49897 | 34166 ft | 422 kts | 291° |
| 2026-04-10 04:11 | 33.54777 | 71.43595 | 34167 ft | 422 kts | 291° |
| 2026-04-10 04:12 | 33.57389 | 71.37313 | 34167 ft | 421 kts | 291° |
| 2026-04-10 04:12 | 33.59981 | 71.31067 | 34168 ft | 420 kts | 291° |
| 2026-04-10 04:13 | 33.62580 | 71.24792 | 34167 ft | 420 kts | 291° |
| 2026-04-10 04:13 | 33.65164 | 71.18542 | 34167 ft | 420 kts | 291° |
| 2026-04-10 04:14 | 33.67772 | 71.12222 | 34168 ft | 420 kts | 291° |
| 2026-04-10 04:14 | 33.70366 | 71.05926 | 34168 ft | 419 kts | 291° |
| 2026-04-10 04:15 | 33.72941 | 70.99665 | 34167 ft | 419 kts | 291° |
| 2026-04-10 04:15 | 33.75513 | 70.93399 | 34167 ft | 419 kts | 291° |
| 2026-04-10 04:16 | 33.79377 | 70.83985 | 34167 ft | 417 kts | 291° |
| 2026-04-10 04:17 | 33.81989 | 70.77742 | 34166 ft | 417 kts | 291° |
| 2026-04-10 04:17 | 33.84534 | 70.71527 | 34166 ft | 417 kts | 291° |
| 2026-04-10 04:18 | 33.87084 | 70.65261 | 34166 ft | 416 kts | 291° |
| 2026-04-10 04:18 | 33.89629 | 70.59006 | 34166 ft | 416 kts | 291° |
| 2026-04-10 04:19 | 33.92178 | 70.52748 | 34166 ft | 416 kts | 291° |
| 2026-04-10 04:19 | 33.94772 | 70.46501 | 34166 ft | 417 kts | 292° |
| 2026-04-10 04:20 | 33.97520 | 70.40343 | 34165 ft | 417 kts | 293° |
| 2026-04-10 04:20 | 34.00259 | 70.34173 | 34165 ft | 417 kts | 292° |
| 2026-04-10 04:21 | 34.02977 | 70.28007 | 34165 ft | 417 kts | 293° |
| 2026-04-10 04:21 | 34.05728 | 70.21843 | 34169 ft | 417 kts | 292° |
| 2026-04-10 04:22 | 34.08421 | 70.15696 | 34170 ft | 417 kts | 292° |
| 2026-04-10 04:22 | 34.11114 | 70.09517 | 34170 ft | 416 kts | 292° |
| 2026-04-10 04:23 | 34.13806 | 70.03327 | 34170 ft | 416 kts | 292° |
| 2026-04-10 04:23 | 34.16495 | 69.97147 | 34169 ft | 416 kts | 292° |
| 2026-04-10 04:24 | 34.19182 | 69.90950 | 34169 ft | 416 kts | 292° |
| 2026-04-10 04:24 | 34.21856 | 69.84750 | 34169 ft | 416 kts | 292° |
| 2026-04-10 04:25 | 34.24529 | 69.78537 | 34163 ft | 417 kts | 292° |
| 2026-04-10 04:25 | 34.27200 | 69.72314 | 34161 ft | 417 kts | 292° |
| 2026-04-10 04:26 | 34.29872 | 69.66079 | 34161 ft | 418 kts | 292° |
| 2026-04-10 04:26 | 34.32546 | 69.59832 | 34161 ft | 418 kts | 292° |
| 2026-04-10 04:27 | 34.35247 | 69.53583 | 34160 ft | 419 kts | 292° |
| 2026-04-10 04:27 | 34.37941 | 69.47373 | 34160 ft | 419 kts | 292° |
| 2026-04-10 04:28 | 34.40642 | 69.41099 | 34159 ft | 421 kts | 292° |
| 2026-04-10 04:28 | 34.43321 | 69.34794 | 34158 ft | 421 kts | 292° |
| 2026-04-10 04:29 | 34.45997 | 69.28479 | 34157 ft | 421 kts | 292° |
| 2026-04-10 04:29 | 34.48675 | 69.22152 | 34156 ft | 422 kts | 291° |
| 2026-04-10 04:30 | 34.51889 | 69.16158 | 34153 ft | 434 kts | 306° |
| 2026-04-10 04:30 | 34.56747 | 69.11616 | 34155 ft | 450 kts | 319° |
| 2026-04-10 04:31 | 34.62317 | 69.07902 | 34153 ft | 461 kts | 323° |
| 2026-04-10 04:31 | 34.68069 | 69.04339 | 34152 ft | 465 kts | 322° |
| 2026-04-10 04:32 | 34.73795 | 69.00683 | 34152 ft | 464 kts | 322° |
| 2026-04-10 04:32 | 34.79484 | 68.97001 | 34151 ft | 463 kts | 322° |
| 2026-04-10 04:33 | 34.85134 | 68.93348 | 34151 ft | 463 kts | 322° |
| 2026-04-10 04:33 | 34.90865 | 68.89639 | 34150 ft | 465 kts | 322° |
| 2026-04-10 04:34 | 34.96548 | 68.85943 | 34149 ft | 466 kts | 322° |
| 2026-04-10 04:34 | 35.02266 | 68.82214 | 34133 ft | 466 kts | 322° |
| 2026-04-10 04:35 | 35.07976 | 68.78482 | 34131 ft | 466 kts | 322° |
| 2026-04-10 04:35 | 35.13694 | 68.74739 | 34130 ft | 466 kts | 322° |
| 2026-04-10 04:36 | 35.19420 | 68.70984 | 34129 ft | 468 kts | 322° |
| 2026-04-10 04:36 | 35.25167 | 68.67210 | 34128 ft | 468 kts | 322° |
| 2026-04-10 04:37 | 35.30907 | 68.63434 | 34128 ft | 468 kts | 322° |
| 2026-04-10 04:37 | 35.36661 | 68.59665 | 34127 ft | 469 kts | 322° |
| 2026-04-10 04:38 | 35.42381 | 68.55888 | 34125 ft | 471 kts | 322° |
| 2026-04-10 04:38 | 35.48145 | 68.52069 | 34124 ft | 471 kts | 322° |
| 2026-04-10 04:39 | 35.53915 | 68.48241 | 34123 ft | 472 kts | 322° |
| 2026-04-10 04:39 | 35.59694 | 68.44406 | 34123 ft | 473 kts | 322° |
| 2026-04-10 04:40 | 35.65473 | 68.40540 | 34122 ft | 473 kts | 322° |
| 2026-04-10 04:40 | 35.71260 | 68.36654 | 34122 ft | 474 kts | 322° |
| 2026-04-10 04:41 | 35.77052 | 68.32757 | 34120 ft | 475 kts | 322° |
| 2026-04-10 04:41 | 35.82845 | 68.28851 | 34119 ft | 475 kts | 322° |
| 2026-04-10 04:42 | 35.88650 | 68.24930 | 34119 ft | 475 kts | 322° |
| 2026-04-10 04:42 | 35.94461 | 68.21030 | 34118 ft | 476 kts | 323° |
| 2026-04-10 04:43 | 36.00281 | 68.17113 | 34119 ft | 476 kts | 322° |
| 2026-04-10 04:43 | 36.06095 | 68.13182 | 34118 ft | 476 kts | 322° |
| 2026-04-10 04:44 | 36.11869 | 68.09268 | 34117 ft | 476 kts | 322° |
| 2026-04-10 04:44 | 36.17671 | 68.05327 | 34117 ft | 476 kts | 322° |
| 2026-04-10 04:45 | 36.23483 | 68.01373 | 34116 ft | 476 kts | 322° |
| 2026-04-10 04:45 | 36.29307 | 67.97403 | 34115 ft | 477 kts | 322° |
| 2026-04-10 04:46 | 36.35117 | 67.93437 | 34115 ft | 477 kts | 323° |
| 2026-04-10 04:46 | 36.40936 | 67.89457 | 34114 ft | 477 kts | 323° |
| 2026-04-10 04:47 | 36.46737 | 67.85502 | 34115 ft | 478 kts | 323° |
| 2026-04-10 04:47 | 36.52567 | 67.81505 | 34115 ft | 479 kts | 323° |
| 2026-04-10 04:48 | 36.58401 | 67.77486 | 34114 ft | 479 kts | 323° |
| 2026-04-10 04:48 | 36.64242 | 67.73453 | 34114 ft | 480 kts | 323° |
| 2026-04-10 04:49 | 36.69111 | 67.70091 | 34113 ft | 482 kts | 323° |
| 2026-04-10 04:49 | 36.74989 | 67.66035 | 34114 ft | 483 kts | 324° |
| 2026-04-10 04:50 | 36.80881 | 67.61977 | 34113 ft | 484 kts | 324° |
| 2026-04-10 04:50 | 36.86772 | 67.57905 | 34113 ft | 485 kts | 324° |
| 2026-04-10 04:51 | 36.92680 | 67.53816 | 34113 ft | 486 kts | 324° |
| 2026-04-10 04:51 | 36.98585 | 67.49769 | 34112 ft | 486 kts | 324° |
| 2026-04-10 04:52 | 37.04507 | 67.45660 | 34112 ft | 487 kts | 324° |
| 2026-04-10 04:52 | 37.10433 | 67.41534 | 34112 ft | 488 kts | 325° |
| 2026-04-10 04:53 | 37.16364 | 67.37398 | 34112 ft | 488 kts | 325° |
| 2026-04-10 04:53 | 37.22393 | 67.33481 | 34110 ft | 494 kts | 335° |
| 2026-04-10 04:54 | 37.29120 | 67.31460 | 34107 ft | 494 kts | 337° |
| 2026-04-10 04:54 | 37.35313 | 67.27927 | 34115 ft | 489 kts | 326° |
| 2026-04-10 04:55 | 37.41256 | 67.23700 | 34113 ft | 492 kts | 326° |
| 2026-04-10 04:55 | 37.47325 | 67.19683 | 34112 ft | 492 kts | 328° |
| 2026-04-10 04:56 | 37.53377 | 67.15750 | 34112 ft | 492 kts | 327° |
| 2026-04-10 04:56 | 37.59451 | 67.11770 | 34113 ft | 492 kts | 327° |
| 2026-04-10 04:57 | 37.65537 | 67.07773 | 34113 ft | 493 kts | 327° |
| 2026-04-10 04:57 | 37.71511 | 67.03559 | 34114 ft | 491 kts | 323° |
| 2026-04-10 04:58 | 37.77133 | 66.98682 | 34115 ft | 489 kts | 320° |
| 2026-04-10 04:58 | 37.82679 | 66.93720 | 34119 ft | 488 kts | 321° |
| 2026-04-10 04:59 | 37.88265 | 66.88821 | 34123 ft | 489 kts | 321° |
| 2026-04-10 04:59 | 37.93861 | 66.83917 | 34125 ft | 490 kts | 321° |
| 2026-04-10 05:00 | 37.99466 | 66.79001 | 34128 ft | 490 kts | 321° |
| 2026-04-10 05:00 | 38.05084 | 66.74069 | 34130 ft | 491 kts | 322° |
| 2026-04-10 05:01 | 38.10712 | 66.69118 | 34132 ft | 493 kts | 322° |
| 2026-04-10 05:01 | 38.16353 | 66.64141 | 34134 ft | 494 kts | 322° |
| 2026-04-10 05:02 | 38.21960 | 66.59183 | 34135 ft | 493 kts | 322° |
| 2026-04-10 05:02 | 38.27595 | 66.54192 | 34137 ft | 493 kts | 322° |
| 2026-04-10 05:03 | 38.33235 | 66.49216 | 34138 ft | 493 kts | 322° |
| 2026-04-10 05:03 | 38.38887 | 66.44254 | 34140 ft | 493 kts | 322° |
| 2026-04-10 05:04 | 38.44521 | 66.39253 | 34140 ft | 493 kts | 322° |
| 2026-04-10 05:04 | 38.50149 | 66.34228 | 34141 ft | 493 kts | 322° |
| 2026-04-10 05:05 | 38.55778 | 66.29192 | 34142 ft | 493 kts | 322° |
| 2026-04-10 05:05 | 38.61548 | 66.24442 | 34144 ft | 495 kts | 328° |
| 2026-04-10 05:06 | 38.67753 | 66.20704 | 34143 ft | 498 kts | 334° |
| 2026-04-10 05:06 | 38.73706 | 66.17755 | 34142 ft | 499 kts | 337° |
| 2026-04-10 05:07 | 38.80237 | 66.14676 | 34142 ft | 500 kts | 336° |
| 2026-04-10 05:07 | 38.86729 | 66.11500 | 34142 ft | 499 kts | 336° |
| 2026-04-10 05:08 | 38.93168 | 66.08314 | 34143 ft | 499 kts | 336° |
| 2026-04-10 05:08 | 38.99659 | 66.05118 | 34143 ft | 498 kts | 336° |
| 2026-04-10 05:09 | 39.06130 | 66.01930 | 34143 ft | 498 kts | 336° |
| 2026-04-10 05:09 | 39.15827 | 65.97098 | 34145 ft | 497 kts | 336° |
| 2026-04-10 05:10 | 39.22277 | 65.93871 | 34145 ft | 497 kts | 336° |
| 2026-04-10 05:10 | 39.28676 | 65.90668 | 34146 ft | 496 kts | 336° |
| 2026-04-10 05:11 | 39.35124 | 65.87432 | 34147 ft | 497 kts | 336° |
| 2026-04-10 05:11 | 39.41566 | 65.84194 | 34147 ft | 496 kts | 336° |
| 2026-04-10 05:12 | 39.48005 | 65.80963 | 34147 ft | 496 kts | 336° |
| 2026-04-10 05:12 | 39.54445 | 65.77734 | 34147 ft | 496 kts | 336° |
| 2026-04-10 05:13 | 39.60886 | 65.74475 | 34146 ft | 496 kts | 336° |
| 2026-04-10 05:13 | 39.67268 | 65.71236 | 34145 ft | 496 kts | 336° |
| 2026-04-10 05:14 | 39.73716 | 65.67963 | 34141 ft | 496 kts | 336° |
| 2026-04-10 05:14 | 39.80145 | 65.64704 | 34141 ft | 496 kts | 336° |
| 2026-04-10 05:15 | 39.86572 | 65.61438 | 34142 ft | 496 kts | 336° |
| 2026-04-10 05:15 | 39.92996 | 65.58152 | 34141 ft | 496 kts | 336° |
| 2026-04-10 05:16 | 39.99420 | 65.54860 | 34141 ft | 496 kts | 336° |
| 2026-04-10 05:16 | 40.05840 | 65.51567 | 34142 ft | 496 kts | 336° |
| 2026-04-10 05:17 | 40.12250 | 65.48254 | 34142 ft | 495 kts | 336° |
| 2026-04-10 05:17 | 40.18650 | 65.44937 | 34142 ft | 495 kts | 336° |
| 2026-04-10 05:18 | 40.25062 | 65.41607 | 34142 ft | 495 kts | 336° |
| 2026-04-10 05:18 | 40.31480 | 65.38307 | 34141 ft | 495 kts | 336° |
| 2026-04-10 05:19 | 40.37848 | 65.34993 | 34141 ft | 495 kts | 336° |
| 2026-04-10 05:19 | 40.44240 | 65.31651 | 34142 ft | 494 kts | 336° |
| 2026-04-10 05:20 | 40.50635 | 65.28303 | 34142 ft | 494 kts | 336° |
| 2026-04-10 05:20 | 40.57033 | 65.24949 | 34142 ft | 494 kts | 336° |
| 2026-04-10 05:21 | 40.63432 | 65.21630 | 34143 ft | 494 kts | 337° |
| 2026-04-10 05:21 | 40.69818 | 65.18284 | 34143 ft | 494 kts | 337° |
| 2026-04-10 05:22 | 40.76202 | 65.14926 | 34143 ft | 494 kts | 337° |
| 2026-04-10 05:22 | 40.82585 | 65.11564 | 34143 ft | 493 kts | 337° |
| 2026-04-10 05:23 | 40.88957 | 65.08206 | 34143 ft | 493 kts | 337° |
| 2026-04-10 05:23 | 40.95343 | 65.04865 | 34144 ft | 493 kts | 337° |
| 2026-04-10 05:24 | 41.01710 | 65.01506 | 34143 ft | 493 kts | 337° |
| 2026-04-10 05:24 | 41.08044 | 64.98147 | 34144 ft | 493 kts | 337° |
| 2026-04-10 05:25 | 41.14412 | 64.94764 | 34144 ft | 493 kts | 337° |
| 2026-04-10 05:25 | 41.20769 | 64.91385 | 34144 ft | 492 kts | 337° |
| 2026-04-10 05:26 | 41.27120 | 64.87996 | 34145 ft | 492 kts | 337° |
| 2026-04-10 05:26 | 41.33474 | 64.84596 | 34146 ft | 492 kts | 337° |
| 2026-04-10 05:27 | 41.39812 | 64.81195 | 34146 ft | 491 kts | 337° |
| 2026-04-10 05:27 | 41.46161 | 64.77784 | 34147 ft | 491 kts | 337° |
| 2026-04-10 05:28 | 41.52508 | 64.74413 | 34147 ft | 490 kts | 337° |
| 2026-04-10 05:28 | 41.58832 | 64.71005 | 34148 ft | 490 kts | 337° |
| 2026-04-10 05:29 | 41.65152 | 64.67584 | 34148 ft | 489 kts | 337° |
| 2026-04-10 05:29 | 41.71470 | 64.64159 | 34149 ft | 489 kts | 337° |
| 2026-04-10 05:30 | 41.77738 | 64.60748 | 34150 ft | 489 kts | 336° |
| 2026-04-10 05:30 | 41.84011 | 64.57223 | 34150 ft | 488 kts | 336° |
| 2026-04-10 05:31 | 41.90277 | 64.53692 | 34151 ft | 487 kts | 336° |
| 2026-04-10 05:31 | 41.96534 | 64.50162 | 34152 ft | 487 kts | 336° |
| 2026-04-10 05:32 | 42.01737 | 64.47223 | 34150 ft | 487 kts | 336° |
| 2026-04-10 05:32 | 42.07988 | 64.43688 | 34150 ft | 487 kts | 336° |
| 2026-04-10 05:33 | 42.14237 | 64.40181 | 34151 ft | 487 kts | 336° |
| 2026-04-10 05:33 | 42.20495 | 64.36663 | 34152 ft | 487 kts | 336° |
| 2026-04-10 05:34 | 42.26737 | 64.33116 | 34153 ft | 487 kts | 336° |
| 2026-04-10 05:34 | 42.32944 | 64.29572 | 34154 ft | 487 kts | 336° |
| 2026-04-10 05:35 | 42.39183 | 64.26003 | 34155 ft | 487 kts | 336° |
| 2026-04-10 05:35 | 42.45422 | 64.22432 | 34156 ft | 487 kts | 336° |
| 2026-04-10 05:36 | 42.51681 | 64.18926 | 34157 ft | 486 kts | 337° |
| 2026-04-10 05:36 | 42.57818 | 64.15071 | 34159 ft | 486 kts | 329° |
| 2026-04-10 05:37 | 42.63361 | 64.09923 | 34160 ft | 486 kts | 323° |
| 2026-04-10 05:37 | 42.68657 | 64.04163 | 34164 ft | 487 kts | 320° |
| 2026-04-10 05:38 | 42.73849 | 63.98244 | 34164 ft | 487 kts | 320° |
| 2026-04-10 05:38 | 42.79051 | 63.92338 | 34165 ft | 486 kts | 320° |
| 2026-04-10 05:39 | 42.84225 | 63.86465 | 34165 ft | 487 kts | 320° |
| 2026-04-10 05:39 | 42.89451 | 63.80585 | 34165 ft | 487 kts | 320° |
| 2026-04-10 05:40 | 42.94672 | 63.74691 | 34166 ft | 487 kts | 320° |
| 2026-04-10 05:40 | 42.99888 | 63.68763 | 34166 ft | 488 kts | 320° |
| 2026-04-10 05:41 | 43.05099 | 63.62823 | 34166 ft | 488 kts | 320° |
| 2026-04-10 05:41 | 43.10326 | 63.56878 | 34166 ft | 487 kts | 320° |
| 2026-04-10 05:42 | 43.15533 | 63.50935 | 34167 ft | 488 kts | 320° |
| 2026-04-10 05:42 | 43.20702 | 63.44980 | 34168 ft | 488 kts | 320° |
| 2026-04-10 05:43 | 43.25903 | 63.38974 | 34168 ft | 488 kts | 320° |
| 2026-04-10 05:43 | 43.31131 | 63.32934 | 34168 ft | 488 kts | 320° |
| 2026-04-10 05:44 | 43.36287 | 63.26962 | 34168 ft | 488 kts | 319° |
| 2026-04-10 05:44 | 43.41503 | 63.20962 | 34168 ft | 489 kts | 320° |
| 2026-04-10 05:45 | 43.46702 | 63.14918 | 34168 ft | 489 kts | 319° |
| 2026-04-10 05:45 | 43.51898 | 63.08843 | 34169 ft | 489 kts | 319° |
| 2026-04-10 05:46 | 43.57088 | 63.02761 | 34169 ft | 489 kts | 319° |
| 2026-04-10 05:46 | 43.62275 | 62.96680 | 34169 ft | 489 kts | 319° |
| 2026-04-10 05:47 | 43.67483 | 62.90608 | 34169 ft | 490 kts | 319° |
| 2026-04-10 05:47 | 43.72688 | 62.84510 | 34169 ft | 490 kts | 319° |
| 2026-04-10 05:48 | 43.77853 | 62.78431 | 34169 ft | 491 kts | 319° |
| 2026-04-10 05:48 | 43.83053 | 62.72289 | 34169 ft | 491 kts | 318° |
| 2026-04-10 05:49 | 43.88248 | 62.66134 | 34169 ft | 491 kts | 318° |
| 2026-04-10 05:49 | 43.93446 | 62.59963 | 34168 ft | 492 kts | 318° |
| 2026-04-10 05:50 | 43.98682 | 62.53843 | 34168 ft | 492 kts | 318° |
| 2026-04-10 05:50 | 44.03880 | 62.47663 | 34168 ft | 492 kts | 318° |
| 2026-04-10 05:51 | 44.09075 | 62.41444 | 34168 ft | 493 kts | 317° |
| 2026-04-10 05:51 | 44.14268 | 62.35219 | 34167 ft | 492 kts | 317° |
| 2026-04-10 05:52 | 44.19464 | 62.28981 | 34167 ft | 492 kts | 317° |
| 2026-04-10 05:52 | 44.24610 | 62.22765 | 34167 ft | 493 kts | 317° |
| 2026-04-10 05:53 | 44.29784 | 62.16490 | 34166 ft | 493 kts | 317° |
| 2026-04-10 05:53 | 44.34955 | 62.10200 | 34165 ft | 493 kts | 317° |
| 2026-04-10 05:54 | 44.40130 | 62.03891 | 34164 ft | 493 kts | 317° |
| 2026-04-10 05:54 | 44.45296 | 61.97594 | 34164 ft | 493 kts | 317° |
| 2026-04-10 05:55 | 44.50492 | 61.91319 | 34163 ft | 493 kts | 317° |
| 2026-04-10 05:55 | 44.55668 | 61.85004 | 34162 ft | 493 kts | 317° |
| 2026-04-10 05:56 | 44.60837 | 61.78667 | 34162 ft | 493 kts | 317° |
| 2026-04-10 05:56 | 44.65965 | 61.72369 | 34161 ft | 493 kts | 317° |
| 2026-04-10 05:57 | 44.71144 | 61.66040 | 34161 ft | 493 kts | 316° |
| 2026-04-10 05:57 | 44.76298 | 61.59657 | 34161 ft | 493 kts | 316° |
| 2026-04-10 05:58 | 44.81448 | 61.53254 | 34166 ft | 493 kts | 316° |
| 2026-04-10 05:58 | 44.86599 | 61.46841 | 34166 ft | 494 kts | 316° |
| 2026-04-10 05:59 | 44.91744 | 61.40430 | 34166 ft | 494 kts | 316° |
| 2026-04-10 05:59 | 44.96896 | 61.34004 | 34165 ft | 494 kts | 316° |
| 2026-04-10 06:00 | 45.02036 | 61.27566 | 34165 ft | 494 kts | 316° |
| 2026-04-10 06:00 | 45.07179 | 61.21108 | 34165 ft | 494 kts | 315° |
| 2026-04-10 06:01 | 45.12312 | 61.14649 | 34165 ft | 494 kts | 315° |
| 2026-04-10 06:01 | 45.17422 | 61.08240 | 34164 ft | 494 kts | 316° |
| 2026-04-10 06:02 | 45.22603 | 61.01822 | 34164 ft | 494 kts | 315° |
| 2026-04-10 06:02 | 45.27741 | 60.95325 | 34167 ft | 494 kts | 315° |
| 2026-04-10 06:03 | 45.32855 | 60.88816 | 34169 ft | 494 kts | 315° |
| 2026-04-10 06:03 | 45.37941 | 60.82334 | 34169 ft | 493 kts | 315° |
| 2026-04-10 06:04 | 45.43053 | 60.75812 | 34169 ft | 493 kts | 314° |
| 2026-04-10 06:04 | 45.48156 | 60.69281 | 34169 ft | 493 kts | 314° |
| 2026-04-10 06:05 | 45.53251 | 60.62731 | 34166 ft | 493 kts | 314° |
| 2026-04-10 06:05 | 45.58338 | 60.56169 | 34150 ft | 493 kts | 314° |
| 2026-04-10 06:06 | 45.65923 | 60.46355 | 34151 ft | 493 kts | 314° |
| 2026-04-10 06:07 | 45.71063 | 60.39752 | 34151 ft | 493 kts | 314° |
| 2026-04-10 06:07 | 45.76167 | 60.33188 | 34151 ft | 492 kts | 314° |
| 2026-04-10 06:08 | 45.81216 | 60.26640 | 34151 ft | 492 kts | 313° |
| 2026-04-10 06:08 | 45.86293 | 60.20030 | 34151 ft | 492 kts | 313° |
| 2026-04-10 06:09 | 45.91358 | 60.13416 | 34151 ft | 492 kts | 313° |
| 2026-04-10 06:09 | 45.96423 | 60.06784 | 34151 ft | 492 kts | 313° |
| 2026-04-10 06:10 | 46.01495 | 60.00171 | 34151 ft | 492 kts | 313° |
| 2026-04-10 06:10 | 46.06555 | 59.93532 | 34151 ft | 492 kts | 313° |
| 2026-04-10 06:11 | 46.11594 | 59.86857 | 34150 ft | 492 kts | 313° |
| 2026-04-10 06:11 | 46.16599 | 59.80212 | 34150 ft | 492 kts | 313° |
| 2026-04-10 06:12 | 46.21630 | 59.73528 | 34150 ft | 492 kts | 313° |
| 2026-04-10 06:12 | 46.26591 | 59.66719 | 34150 ft | 491 kts | 310° |
| 2026-04-10 06:13 | 46.31412 | 59.59693 | 34149 ft | 491 kts | 310° |
| 2026-04-10 06:13 | 46.36192 | 59.52731 | 34149 ft | 490 kts | 310° |
| 2026-04-10 06:14 | 46.40997 | 59.45755 | 34149 ft | 490 kts | 310° |
| 2026-04-10 06:14 | 46.45829 | 59.38735 | 34149 ft | 491 kts | 310° |
| 2026-04-10 06:15 | 46.50688 | 59.31752 | 34149 ft | 491 kts | 310° |
| 2026-04-10 06:15 | 46.55538 | 59.24769 | 34148 ft | 491 kts | 310° |
| 2026-04-10 06:16 | 46.60395 | 59.17716 | 34158 ft | 496 kts | 310° |
| 2026-04-10 06:16 | 46.65287 | 59.10582 | 34159 ft | 498 kts | 310° |
| 2026-04-10 06:17 | 46.70179 | 59.03422 | 34159 ft | 497 kts | 310° |
| 2026-04-10 06:17 | 46.75054 | 58.96271 | 34160 ft | 497 kts | 309° |
| 2026-04-10 06:18 | 46.79905 | 58.89130 | 34160 ft | 498 kts | 309° |
| 2026-04-10 06:18 | 46.83985 | 58.83110 | 34160 ft | 498 kts | 309° |
| 2026-04-10 06:19 | 46.88857 | 58.75904 | 34160 ft | 498 kts | 309° |
| 2026-04-10 06:19 | 46.93702 | 58.68718 | 34144 ft | 499 kts | 309° |
| 2026-04-10 06:20 | 46.98571 | 58.61478 | 34143 ft | 499 kts | 309° |
| 2026-04-10 06:20 | 47.03438 | 58.54219 | 34142 ft | 499 kts | 309° |
| 2026-04-10 06:21 | 47.08313 | 58.46944 | 34142 ft | 500 kts | 309° |
| 2026-04-10 06:21 | 47.13204 | 58.39675 | 34142 ft | 500 kts | 308° |
| 2026-04-10 06:22 | 47.18058 | 58.32351 | 34142 ft | 501 kts | 308° |
| 2026-04-10 06:22 | 47.22924 | 58.24983 | 34142 ft | 501 kts | 308° |
| 2026-04-10 06:23 | 47.27749 | 58.17669 | 34143 ft | 501 kts | 308° |
| 2026-04-10 06:23 | 47.32613 | 58.10285 | 34156 ft | 501 kts | 308° |
| 2026-04-10 06:24 | 47.37470 | 58.02895 | 34158 ft | 502 kts | 308° |
| 2026-04-10 06:24 | 47.42341 | 57.95488 | 34158 ft | 503 kts | 308° |
| 2026-04-10 06:25 | 47.47234 | 57.88113 | 34158 ft | 503 kts | 307° |
| 2026-04-10 06:25 | 47.52095 | 57.80647 | 34158 ft | 503 kts | 307° |
| 2026-04-10 06:26 | 47.56945 | 57.73168 | 34158 ft | 503 kts | 307° |
| 2026-04-10 06:26 | 47.61794 | 57.65686 | 34158 ft | 503 kts | 307° |
| 2026-04-10 06:27 | 47.66639 | 57.58181 | 34259 ft | 504 kts | 307° |
| 2026-04-10 06:27 | 47.69051 | 57.54428 | 34464 ft | 502 kts | 307° |
| 2026-04-10 06:27 | 47.71427 | 57.50720 | 34698 ft | 500 kts | 307° |
| 2026-04-10 06:27 | 47.73825 | 57.46971 | 34869 ft | 500 kts | 307° |
| 2026-04-10 06:28 | 47.76220 | 57.43220 | 34987 ft | 500 kts | 307° |
| 2026-04-10 06:28 | 47.78614 | 57.39465 | 35143 ft | 500 kts | 307° |
| 2026-04-10 06:28 | 47.81011 | 57.35700 | 35283 ft | 500 kts | 307° |
| 2026-04-10 06:28 | 47.83397 | 57.31947 | 35422 ft | 500 kts | 307° |
| 2026-04-10 06:29 | 47.85787 | 57.28182 | 35561 ft | 500 kts | 307° |
| 2026-04-10 06:29 | 47.88183 | 57.24422 | 35684 ft | 500 kts | 307° |
| 2026-04-10 06:29 | 47.90594 | 57.20694 | 35867 ft | 499 kts | 307° |
| 2026-04-10 06:29 | 47.92991 | 57.16964 | 36010 ft | 499 kts | 307° |
| 2026-04-10 06:30 | 47.95391 | 57.13206 | 36100 ft | 499 kts | 307° |
| 2026-04-10 06:30 | 48.00183 | 57.05655 | 36158 ft | 499 kts | 307° |
| 2026-04-10 06:31 | 48.04929 | 56.98142 | 36159 ft | 501 kts | 307° |
| 2026-04-10 06:31 | 48.09708 | 56.90551 | 36159 ft | 502 kts | 307° |
| 2026-04-10 06:32 | 48.14490 | 56.82932 | 36159 ft | 502 kts | 307° |
| 2026-04-10 06:32 | 48.19270 | 56.75295 | 36159 ft | 501 kts | 307° |
| 2026-04-10 06:33 | 48.24001 | 56.67713 | 36159 ft | 501 kts | 307° |
| 2026-04-10 06:33 | 48.28762 | 56.60062 | 36159 ft | 501 kts | 307° |
| 2026-04-10 06:34 | 48.33534 | 56.52417 | 36160 ft | 501 kts | 307° |
| 2026-04-10 06:34 | 48.38293 | 56.44764 | 36160 ft | 500 kts | 306° |
| 2026-04-10 06:35 | 48.43021 | 56.37064 | 36160 ft | 500 kts | 306° |
| 2026-04-10 06:35 | 48.47737 | 56.29362 | 36159 ft | 500 kts | 306° |
| 2026-04-10 06:36 | 48.52456 | 56.21649 | 36159 ft | 500 kts | 306° |
| 2026-04-10 06:36 | 48.57190 | 56.13945 | 36159 ft | 500 kts | 306° |
| 2026-04-10 06:37 | 48.61905 | 56.06206 | 36159 ft | 501 kts | 306° |
| 2026-04-10 06:37 | 48.66623 | 55.98425 | 36158 ft | 501 kts | 306° |
| 2026-04-10 06:38 | 48.71325 | 55.90691 | 36158 ft | 503 kts | 307° |
| 2026-04-10 06:38 | 48.76080 | 55.82894 | 36158 ft | 504 kts | 306° |
| 2026-04-10 06:39 | 48.80815 | 55.75046 | 36158 ft | 504 kts | 306° |
| 2026-04-10 06:39 | 48.85554 | 55.67181 | 36157 ft | 505 kts | 306° |
| 2026-04-10 06:40 | 48.90278 | 55.59280 | 36157 ft | 505 kts | 306° |
| 2026-04-10 06:40 | 48.95006 | 55.51345 | 36157 ft | 506 kts | 306° |
| 2026-04-10 06:41 | 48.99778 | 55.43455 | 36156 ft | 506 kts | 306° |
| 2026-04-10 06:41 | 49.04498 | 55.35488 | 36156 ft | 506 kts | 305° |
| 2026-04-10 06:42 | 49.09209 | 55.27490 | 36160 ft | 507 kts | 305° |
| 2026-04-10 06:42 | 49.13899 | 55.19518 | 36161 ft | 508 kts | 305° |
| 2026-04-10 06:43 | 49.18620 | 55.11478 | 36161 ft | 508 kts | 305° |
| 2026-04-10 06:43 | 49.23325 | 55.03422 | 36153 ft | 508 kts | 305° |
| 2026-04-10 06:44 | 49.28030 | 54.95330 | 36151 ft | 508 kts | 305° |
| 2026-04-10 06:44 | 49.32726 | 54.87222 | 36127 ft | 509 kts | 305° |
| 2026-04-10 06:45 | 49.37421 | 54.79095 | 36118 ft | 509 kts | 305° |
| 2026-04-10 06:45 | 49.42117 | 54.71041 | 36117 ft | 509 kts | 305° |
| 2026-04-10 06:46 | 49.46849 | 54.62923 | 36116 ft | 510 kts | 305° |
| 2026-04-10 06:46 | 49.51565 | 54.54742 | 36114 ft | 511 kts | 305° |
| 2026-04-10 06:47 | 49.56278 | 54.46527 | 36113 ft | 512 kts | 304° |
| 2026-04-10 06:47 | 49.60988 | 54.38288 | 36112 ft | 512 kts | 304° |
| 2026-04-10 06:48 | 49.65695 | 54.30028 | 36110 ft | 513 kts | 304° |
| 2026-04-10 06:48 | 49.70427 | 54.21762 | 36109 ft | 514 kts | 305° |
| 2026-04-10 06:49 | 49.75150 | 54.13454 | 36107 ft | 514 kts | 304° |
| 2026-04-10 06:49 | 49.79821 | 54.05136 | 36106 ft | 515 kts | 304° |
| 2026-04-10 06:50 | 49.84516 | 53.96753 | 36104 ft | 515 kts | 304° |
| 2026-04-10 06:50 | 49.89220 | 53.88348 | 36103 ft | 515 kts | 304° |
| 2026-04-10 06:51 | 49.93904 | 53.79944 | 36101 ft | 515 kts | 304° |
| 2026-04-10 06:51 | 49.98582 | 53.71504 | 36100 ft | 515 kts | 304° |
| 2026-04-10 06:52 | 50.03240 | 53.63064 | 36098 ft | 514 kts | 304° |
| 2026-04-10 06:52 | 50.07893 | 53.54604 | 36096 ft | 515 kts | 304° |
| 2026-04-10 06:53 | 50.12528 | 53.46167 | 36094 ft | 516 kts | 304° |
| 2026-04-10 06:53 | 50.17248 | 53.37713 | 36092 ft | 517 kts | 304° |
| 2026-04-10 06:54 | 50.21935 | 53.29203 | 36090 ft | 517 kts | 304° |
| 2026-04-10 06:54 | 50.26613 | 53.20649 | 36088 ft | 517 kts | 304° |
| 2026-04-10 06:55 | 50.31277 | 53.12082 | 36086 ft | 517 kts | 304° |
| 2026-04-10 06:55 | 50.35937 | 53.03493 | 36083 ft | 518 kts | 305° |
| 2026-04-10 06:56 | 50.40595 | 52.94877 | 36090 ft | 518 kts | 305° |
| 2026-04-10 06:56 | 50.45243 | 52.86251 | 36087 ft | 518 kts | 305° |
| 2026-04-10 06:57 | 50.49875 | 52.77678 | 36084 ft | 518 kts | 306° |
| 2026-04-10 06:57 | 50.54531 | 52.69040 | 36080 ft | 518 kts | 305° |
| 2026-04-10 06:58 | 50.59152 | 52.60336 | 36077 ft | 518 kts | 305° |
| 2026-04-10 06:58 | 50.63771 | 52.51606 | 36073 ft | 519 kts | 305° |
| 2026-04-10 06:59 | 50.68392 | 52.42868 | 36070 ft | 518 kts | 305° |
| 2026-04-10 06:59 | 50.73031 | 52.34135 | 36068 ft | 518 kts | 305° |
| 2026-04-10 07:00 | 50.77633 | 52.25460 | 36065 ft | 519 kts | 305° |
| 2026-04-10 07:00 | 50.82258 | 52.16700 | 36062 ft | 519 kts | 305° |
| 2026-04-10 07:01 | 50.86883 | 52.07911 | 36083 ft | 519 kts | 305° |
| 2026-04-10 07:01 | 50.91504 | 51.99116 | 36086 ft | 520 kts | 305° |
| 2026-04-10 07:02 | 50.96206 | 51.90355 | 36085 ft | 520 kts | 306° |
| 2026-04-10 07:02 | 51.00851 | 51.81561 | 36084 ft | 520 kts | 305° |
| 2026-04-10 07:03 | 51.04678 | 51.74181 | 36083 ft | 520 kts | 305° |
| 2026-04-10 07:03 | 51.10025 | 51.63841 | 36083 ft | 521 kts | 305° |
| 2026-04-10 07:04 | 51.14562 | 51.54862 | 36084 ft | 519 kts | 301° |
| 2026-04-10 07:04 | 51.17748 | 51.46708 | 36083 ft | 517 kts | 295° |
| 2026-04-10 07:05 | 51.21138 | 51.36608 | 36082 ft | 515 kts | 294° |
| 2026-04-10 07:05 | 51.24511 | 51.26620 | 36082 ft | 514 kts | 294° |
| 2026-04-10 07:06 | 51.27936 | 51.16590 | 36082 ft | 515 kts | 295° |
| 2026-04-10 07:06 | 51.31368 | 51.06538 | 36081 ft | 515 kts | 295° |
| 2026-04-10 07:07 | 51.34882 | 50.96546 | 36080 ft | 516 kts | 296° |
| 2026-04-10 07:07 | 51.38356 | 50.86513 | 36080 ft | 515 kts | 294° |
| 2026-04-10 07:08 | 51.41754 | 50.76408 | 36079 ft | 515 kts | 294° |
| 2026-04-10 07:08 | 51.45147 | 50.66296 | 36075 ft | 515 kts | 294° |
| 2026-04-10 07:09 | 51.50202 | 50.51074 | 36071 ft | 515 kts | 292° |
| 2026-04-10 07:09 | 51.53186 | 50.40622 | 36069 ft | 514 kts | 290° |
| 2026-04-10 07:10 | 51.56170 | 50.30178 | 36066 ft | 515 kts | 291° |
| 2026-04-10 07:10 | 51.59149 | 50.19707 | 36064 ft | 515 kts | 291° |
| 2026-04-10 07:11 | 51.62099 | 50.09279 | 36060 ft | 515 kts | 291° |
| 2026-04-10 07:11 | 51.65070 | 49.98761 | 36057 ft | 516 kts | 291° |
| 2026-04-10 07:12 | 51.68036 | 49.88235 | 36054 ft | 516 kts | 291° |
| 2026-04-10 07:12 | 51.70987 | 49.77677 | 36051 ft | 516 kts | 291° |
| 2026-04-10 07:13 | 51.73918 | 49.67121 | 36048 ft | 515 kts | 290° |
| 2026-04-10 07:13 | 51.76822 | 49.56620 | 36045 ft | 515 kts | 290° |
| 2026-04-10 07:14 | 51.79733 | 49.46058 | 36031 ft | 515 kts | 290° |
| 2026-04-10 07:14 | 51.82700 | 49.35510 | 36028 ft | 515 kts | 291° |
| 2026-04-10 07:15 | 51.85665 | 49.24977 | 36025 ft | 515 kts | 291° |
| 2026-04-10 07:15 | 51.88592 | 49.14406 | 36023 ft | 514 kts | 290° |
| 2026-04-10 07:16 | 51.91457 | 49.03796 | 36023 ft | 514 kts | 290° |
| 2026-04-10 07:16 | 51.94316 | 48.93171 | 36022 ft | 514 kts | 290° |
| 2026-04-10 07:17 | 51.97178 | 48.82534 | 36020 ft | 514 kts | 290° |
| 2026-04-10 07:17 | 52.00012 | 48.71880 | 36019 ft | 514 kts | 290° |
| 2026-04-10 07:18 | 52.02886 | 48.61213 | 36017 ft | 516 kts | 291° |
| 2026-04-10 07:18 | 52.05737 | 48.50510 | 36016 ft | 517 kts | 290° |
| 2026-04-10 07:19 | 52.08545 | 48.39735 | 36014 ft | 517 kts | 290° |
| 2026-04-10 07:19 | 52.11327 | 48.29025 | 36009 ft | 516 kts | 290° |
| 2026-04-10 07:20 | 52.14123 | 48.18261 | 36007 ft | 516 kts | 290° |
| 2026-04-10 07:20 | 52.17038 | 48.07569 | 36006 ft | 516 kts | 291° |
| 2026-04-10 07:21 | 52.19974 | 47.96874 | 36004 ft | 517 kts | 291° |
| 2026-04-10 07:21 | 52.22970 | 47.86211 | 36003 ft | 517 kts | 291° |
| 2026-04-10 07:22 | 52.25873 | 47.75480 | 36002 ft | 517 kts | 290° |
| 2026-04-10 07:22 | 52.28750 | 47.64718 | 36000 ft | 517 kts | 290° |
| 2026-04-10 07:23 | 52.31610 | 47.54009 | 35999 ft | 518 kts | 290° |
| 2026-04-10 07:23 | 52.34491 | 47.43220 | 35998 ft | 518 kts | 290° |
| 2026-04-10 07:24 | 52.37370 | 47.32406 | 35997 ft | 518 kts | 291° |
| 2026-04-10 07:24 | 52.40320 | 47.21611 | 35996 ft | 519 kts | 291° |
| 2026-04-10 07:25 | 52.43190 | 47.10748 | 35995 ft | 520 kts | 290° |
| 2026-04-10 07:25 | 52.46045 | 46.99821 | 35994 ft | 520 kts | 290° |
| 2026-04-10 07:26 | 52.48891 | 46.88908 | 35994 ft | 520 kts | 290° |
| 2026-04-10 07:26 | 52.51735 | 46.78063 | 35993 ft | 520 kts | 291° |
| 2026-04-10 07:27 | 52.54591 | 46.67128 | 35992 ft | 520 kts | 290° |
| 2026-04-10 07:27 | 52.57387 | 46.56148 | 35991 ft | 521 kts | 290° |
| 2026-04-10 07:28 | 52.60176 | 46.45159 | 35991 ft | 520 kts | 290° |
| 2026-04-10 07:28 | 52.62965 | 46.34153 | 35989 ft | 520 kts | 290° |
| 2026-04-10 07:29 | 52.65512 | 46.23009 | 35989 ft | 520 kts | 287° |
| 2026-04-10 07:29 | 52.67926 | 46.11775 | 35985 ft | 520 kts | 287° |
| 2026-04-10 07:30 | 52.70382 | 46.00570 | 35983 ft | 520 kts | 288° |
| 2026-04-10 07:30 | 52.72930 | 45.89489 | 35982 ft | 520 kts | 288° |
| 2026-04-10 07:31 | 52.75412 | 45.78246 | 35980 ft | 521 kts | 288° |
| 2026-04-10 07:31 | 52.77850 | 45.66965 | 35979 ft | 521 kts | 288° |
| 2026-04-10 07:32 | 52.80287 | 45.55683 | 35977 ft | 521 kts | 288° |
| 2026-04-10 07:32 | 52.82739 | 45.44399 | 35976 ft | 522 kts | 288° |
| 2026-04-10 07:33 | 52.85199 | 45.33102 | 35974 ft | 522 kts | 287° |
| 2026-04-10 07:33 | 52.87576 | 45.21806 | 35972 ft | 522 kts | 287° |
| 2026-04-10 07:34 | 52.89968 | 45.10381 | 35969 ft | 522 kts | 287° |
| 2026-04-10 07:34 | 52.92334 | 44.99084 | 35968 ft | 522 kts | 288° |
| 2026-04-10 07:35 | 52.94811 | 44.87763 | 35966 ft | 523 kts | 290° |
| 2026-04-10 07:35 | 52.97442 | 44.76484 | 35966 ft | 523 kts | 289° |
| 2026-04-10 07:36 | 52.99941 | 44.65152 | 35965 ft | 523 kts | 289° |
| 2026-04-10 07:36 | 53.02424 | 44.53805 | 35964 ft | 523 kts | 289° |
| 2026-04-10 07:37 | 53.04911 | 44.42448 | 35963 ft | 523 kts | 289° |
| 2026-04-10 07:37 | 53.07392 | 44.31059 | 35962 ft | 524 kts | 289° |
| 2026-04-10 07:38 | 53.09853 | 44.19647 | 35939 ft | 524 kts | 288° |
| 2026-04-10 07:38 | 53.12302 | 44.08202 | 35936 ft | 524 kts | 288° |
| 2026-04-10 07:39 | 53.14736 | 43.96754 | 35935 ft | 524 kts | 289° |
| 2026-04-10 07:39 | 53.17145 | 43.85379 | 35933 ft | 524 kts | 289° |
| 2026-04-10 07:40 | 53.19660 | 43.73946 | 35927 ft | 525 kts | 289° |
| 2026-04-10 07:40 | 53.22120 | 43.62499 | 35923 ft | 525 kts | 289° |
| 2026-04-10 07:41 | 53.24549 | 43.50999 | 35921 ft | 525 kts | 289° |
| 2026-04-10 07:41 | 53.26959 | 43.39502 | 35918 ft | 525 kts | 289° |
| 2026-04-10 07:42 | 53.29358 | 43.27982 | 35915 ft | 525 kts | 289° |
| 2026-04-10 07:42 | 53.31751 | 43.16427 | 35911 ft | 525 kts | 288° |
| 2026-04-10 07:43 | 53.34128 | 43.04882 | 35908 ft | 525 kts | 288° |
| 2026-04-10 07:43 | 53.36538 | 42.93323 | 35903 ft | 525 kts | 289° |
| 2026-04-10 07:44 | 53.38912 | 42.81758 | 35899 ft | 525 kts | 288° |
| 2026-04-10 07:44 | 53.41217 | 42.70222 | 35895 ft | 525 kts | 288° |
| 2026-04-10 07:45 | 53.43529 | 42.58608 | 35890 ft | 526 kts | 288° |
| 2026-04-10 07:45 | 53.45846 | 42.46965 | 35886 ft | 526 kts | 288° |
| 2026-04-10 07:46 | 53.47962 | 42.35178 | 35880 ft | 526 kts | 286° |
| 2026-04-10 07:46 | 53.49952 | 42.23337 | 35875 ft | 527 kts | 286° |
| 2026-04-10 07:47 | 53.51968 | 42.11487 | 35859 ft | 528 kts | 286° |
| 2026-04-10 07:47 | 53.53989 | 41.99624 | 35855 ft | 528 kts | 286° |
| 2026-04-10 07:48 | 53.55676 | 41.89759 | 35852 ft | 528 kts | 287° |
| 2026-04-10 07:48 | 53.58124 | 41.75933 | 35846 ft | 527 kts | 287° |
| 2026-04-10 07:49 | 53.59807 | 41.66078 | 35844 ft | 527 kts | 286° |
| 2026-04-10 07:49 | 53.61814 | 41.54196 | 35842 ft | 527 kts | 286° |
| 2026-04-10 07:50 | 53.63867 | 41.42331 | 35839 ft | 527 kts | 286° |
| 2026-04-10 07:50 | 53.65829 | 41.30413 | 35835 ft | 527 kts | 286° |
| 2026-04-10 07:51 | 53.67769 | 41.18495 | 35831 ft | 527 kts | 286° |
| 2026-04-10 07:51 | 53.69695 | 41.06646 | 35827 ft | 526 kts | 286° |
| 2026-04-10 07:52 | 53.72089 | 40.94983 | 35824 ft | 525 kts | 294° |
| 2026-04-10 07:52 | 53.75111 | 40.83736 | 35822 ft | 525 kts | 297° |
| 2026-04-10 07:53 | 53.78178 | 40.72609 | 35821 ft | 525 kts | 295° |
| 2026-04-10 07:53 | 53.81067 | 40.61259 | 35825 ft | 525 kts | 294° |
| 2026-04-10 07:54 | 53.83936 | 40.49889 | 35823 ft | 525 kts | 294° |
| 2026-04-10 07:54 | 53.86815 | 40.38511 | 35823 ft | 525 kts | 295° |
| 2026-04-10 07:55 | 53.89687 | 40.27119 | 35833 ft | 525 kts | 294° |
| 2026-04-10 07:55 | 53.92535 | 40.15702 | 35818 ft | 526 kts | 294° |
| 2026-04-10 07:56 | 53.95350 | 40.04380 | 35807 ft | 525 kts | 294° |
| 2026-04-10 07:56 | 53.98190 | 39.92852 | 35804 ft | 527 kts | 294° |
| 2026-04-10 07:57 | 54.01007 | 39.81379 | 35819 ft | 525 kts | 294° |
| 2026-04-10 07:57 | 54.03901 | 39.69973 | 35816 ft | 526 kts | 295° |
| 2026-04-10 07:58 | 54.06746 | 39.58497 | 35828 ft | 526 kts | 295° |
| 2026-04-10 07:58 | 54.09537 | 39.47062 | 35810 ft | 526 kts | 295° |
| 2026-04-10 07:59 | 54.12372 | 39.35547 | 35817 ft | 526 kts | 295° |
| 2026-04-10 07:59 | 54.15183 | 39.24026 | 35825 ft | 525 kts | 294° |
| 2026-04-10 08:00 | 54.17937 | 39.12452 | 35835 ft | 527 kts | 294° |
| 2026-04-10 08:00 | 54.20687 | 39.00843 | 35840 ft | 526 kts | 294° |
| 2026-04-10 08:01 | 54.23568 | 38.89447 | 35844 ft | 523 kts | 300° |
| 2026-04-10 08:01 | 54.27332 | 38.78824 | 35849 ft | 522 kts | 307° |
| 2026-04-10 08:02 | 54.31358 | 38.68484 | 35844 ft | 521 kts | 307° |
| 2026-04-10 08:02 | 54.35367 | 38.58160 | 35847 ft | 519 kts | 307° |
| 2026-04-10 08:03 | 54.39303 | 38.47749 | 35851 ft | 520 kts | 306° |
| 2026-04-10 08:03 | 54.43204 | 38.37265 | 35854 ft | 520 kts | 306° |
| 2026-04-10 08:04 | 54.47067 | 38.26865 | 35857 ft | 520 kts | 306° |
| 2026-04-10 08:05 | 54.52518 | 38.10704 | 35866 ft | 522 kts | 299° |
| 2026-04-10 08:05 | 54.55548 | 37.99290 | 35870 ft | 524 kts | 297° |
| 2026-04-10 08:06 | 54.58616 | 37.87896 | 35874 ft | 524 kts | 298° |
| 2026-04-10 08:06 | 54.61839 | 37.76651 | 35875 ft | 523 kts | 299° |
| 2026-04-10 08:07 | 54.64973 | 37.65324 | 35876 ft | 522 kts | 298° |
| 2026-04-10 08:07 | 54.68066 | 37.53967 | 35877 ft | 522 kts | 298° |
| 2026-04-10 08:08 | 54.71106 | 37.42551 | 35876 ft | 524 kts | 295° |
| 2026-04-10 08:08 | 54.72936 | 37.30315 | 35878 ft | 529 kts | 278° |
| 2026-04-10 08:09 | 54.73015 | 37.17548 | 35882 ft | 532 kts | 271° |
| 2026-04-10 08:09 | 54.73030 | 37.04712 | 35880 ft | 534 kts | 273° |
| 2026-04-10 08:10 | 54.73129 | 36.91860 | 35879 ft | 533 kts | 272° |
| 2026-04-10 08:10 | 54.73210 | 36.79120 | 35878 ft | 533 kts | 272° |
| 2026-04-10 08:11 | 54.73292 | 36.66289 | 35878 ft | 533 kts | 272° |
| 2026-04-10 08:11 | 54.73445 | 36.53470 | 35878 ft | 532 kts | 273° |
| 2026-04-10 08:12 | 54.73559 | 36.40660 | 35877 ft | 532 kts | 272° |
| 2026-04-10 08:12 | 54.73637 | 36.27864 | 35877 ft | 532 kts | 272° |
| 2026-04-10 08:13 | 54.73714 | 36.15040 | 35878 ft | 532 kts | 272° |
| 2026-04-10 08:13 | 54.73748 | 36.02319 | 35879 ft | 532 kts | 272° |
| 2026-04-10 08:14 | 54.73764 | 35.89514 | 35880 ft | 532 kts | 272° |
| 2026-04-10 08:14 | 54.73776 | 35.76698 | 35882 ft | 532 kts | 272° |
| 2026-04-10 08:15 | 54.73911 | 35.63891 | 35884 ft | 532 kts | 272° |
| 2026-04-10 08:15 | 54.73898 | 35.51090 | 35886 ft | 532 kts | 271° |
| 2026-04-10 08:16 | 54.73854 | 35.38344 | 35888 ft | 532 kts | 271° |
| 2026-04-10 08:16 | 54.73812 | 35.25527 | 35891 ft | 532 kts | 271° |
| 2026-04-10 08:17 | 54.73694 | 35.12710 | 35894 ft | 533 kts | 270° |
| 2026-04-10 08:17 | 54.73414 | 34.99902 | 35897 ft | 533 kts | 270° |
| 2026-04-10 08:18 | 54.73139 | 34.87083 | 35900 ft | 533 kts | 270° |
| 2026-04-10 08:18 | 54.72866 | 34.74287 | 35904 ft | 532 kts | 269° |
| 2026-04-10 08:19 | 54.72587 | 34.61495 | 35908 ft | 532 kts | 270° |
| 2026-04-10 08:19 | 54.72399 | 34.48711 | 35912 ft | 532 kts | 270° |
| 2026-04-10 08:20 | 54.72176 | 34.35930 | 35916 ft | 532 kts | 270° |
| 2026-04-10 08:20 | 54.71916 | 34.23214 | 35921 ft | 532 kts | 269° |
| 2026-04-10 08:21 | 54.71572 | 34.10418 | 35925 ft | 532 kts | 269° |
| 2026-04-10 08:21 | 54.71221 | 33.97586 | 35930 ft | 532 kts | 269° |
| 2026-04-10 08:22 | 54.70873 | 33.84885 | 35940 ft | 532 kts | 269° |
| 2026-04-10 08:22 | 54.70191 | 33.72153 | 35951 ft | 532 kts | 264° |
| 2026-04-10 08:23 | 54.69236 | 33.59433 | 35958 ft | 533 kts | 264° |
| 2026-04-10 08:23 | 54.68320 | 33.46716 | 35964 ft | 533 kts | 264° |
| 2026-04-10 08:24 | 54.67425 | 33.34006 | 35970 ft | 533 kts | 264° |
| 2026-04-10 08:24 | 54.66559 | 33.21268 | 35976 ft | 533 kts | 265° |
| 2026-04-10 08:25 | 54.65774 | 33.08552 | 35981 ft | 532 kts | 265° |
| 2026-04-10 08:25 | 54.64922 | 32.95925 | 35987 ft | 532 kts | 264° |
| 2026-04-10 08:26 | 54.64031 | 32.83227 | 35992 ft | 532 kts | 264° |
| 2026-04-10 08:26 | 54.63121 | 32.70527 | 35999 ft | 532 kts | 264° |
| 2026-04-10 08:27 | 54.62199 | 32.57845 | 36004 ft | 532 kts | 264° |
| 2026-04-10 08:27 | 54.61262 | 32.45168 | 36008 ft | 532 kts | 264° |
| 2026-04-10 08:28 | 54.60319 | 32.32584 | 36008 ft | 532 kts | 264° |
| 2026-04-10 08:28 | 54.59351 | 32.19856 | 36011 ft | 532 kts | 264° |
| 2026-04-10 08:29 | 54.58381 | 32.07273 | 36015 ft | 532 kts | 263° |
| 2026-04-10 08:29 | 54.57392 | 31.94622 | 36018 ft | 532 kts | 263° |
| 2026-04-10 08:30 | 54.56391 | 31.81987 | 36020 ft | 532 kts | 263° |
| 2026-04-10 08:30 | 54.55375 | 31.69344 | 36022 ft | 532 kts | 263° |
| 2026-04-10 08:31 | 54.54393 | 31.56723 | 36023 ft | 532 kts | 264° |
| 2026-04-10 08:31 | 54.53372 | 31.44085 | 36026 ft | 532 kts | 263° |
| 2026-04-10 08:32 | 54.52288 | 31.31477 | 36027 ft | 532 kts | 263° |
| 2026-04-10 08:32 | 54.51197 | 31.18877 | 36027 ft | 532 kts | 263° |
| 2026-04-10 08:33 | 54.50106 | 31.06276 | 36027 ft | 532 kts | 262° |
| 2026-04-10 08:33 | 54.48948 | 30.93761 | 36027 ft | 532 kts | 262° |
| 2026-04-10 08:34 | 54.47766 | 30.81183 | 36026 ft | 532 kts | 262° |
| 2026-04-10 08:34 | 54.46691 | 30.68591 | 36025 ft | 532 kts | 262° |
| 2026-04-10 08:35 | 54.45709 | 30.58155 | 36025 ft | 532 kts | 261° |
| 2026-04-10 08:35 | 54.44483 | 30.45592 | 36024 ft | 532 kts | 261° |
| 2026-04-10 08:36 | 54.43258 | 30.33043 | 36024 ft | 532 kts | 261° |
| 2026-04-10 08:36 | 54.42046 | 30.20500 | 36024 ft | 532 kts | 262° |
| 2026-04-10 08:37 | 54.40806 | 30.07980 | 36025 ft | 532 kts | 261° |
| 2026-04-10 08:37 | 54.39541 | 29.95478 | 36028 ft | 531 kts | 261° |
| 2026-04-10 08:38 | 54.38299 | 29.82983 | 36032 ft | 531 kts | 261° |
| 2026-04-10 08:38 | 54.37007 | 29.70494 | 36035 ft | 532 kts | 261° |
| 2026-04-10 08:39 | 54.35710 | 29.57992 | 36038 ft | 533 kts | 261° |
| 2026-04-10 08:39 | 54.34394 | 29.45465 | 36040 ft | 533 kts | 260° |
| 2026-04-10 08:40 | 54.33074 | 29.33043 | 36041 ft | 533 kts | 261° |
| 2026-04-10 08:40 | 54.31769 | 29.20541 | 36043 ft | 533 kts | 260° |
| 2026-04-10 08:41 | 54.30409 | 29.08026 | 36045 ft | 533 kts | 260° |
| 2026-04-10 08:41 | 54.29050 | 28.95558 | 36047 ft | 533 kts | 259° |
| 2026-04-10 08:42 | 54.27662 | 28.83095 | 36048 ft | 533 kts | 259° |
| 2026-04-10 08:42 | 54.26256 | 28.70646 | 36051 ft | 533 kts | 259° |
| 2026-04-10 08:43 | 54.24848 | 28.58292 | 36052 ft | 533 kts | 259° |
| 2026-04-10 08:43 | 54.23417 | 28.45847 | 36053 ft | 533 kts | 259° |
| 2026-04-10 08:44 | 54.22060 | 28.33392 | 36053 ft | 533 kts | 259° |
| 2026-04-10 08:44 | 54.20678 | 28.20948 | 36054 ft | 533 kts | 259° |
| 2026-04-10 08:45 | 54.19247 | 28.08535 | 36054 ft | 532 kts | 259° |
| 2026-04-10 08:45 | 54.17799 | 27.96152 | 36056 ft | 532 kts | 258° |
| 2026-04-10 08:46 | 54.16357 | 27.83754 | 36057 ft | 532 kts | 259° |
| 2026-04-10 08:46 | 54.14927 | 27.71344 | 36058 ft | 532 kts | 258° |
| 2026-04-10 08:47 | 54.13412 | 27.58997 | 36060 ft | 532 kts | 258° |
| 2026-04-10 08:47 | 54.11885 | 27.46628 | 36062 ft | 532 kts | 258° |
| 2026-04-10 08:48 | 54.10358 | 27.34271 | 36065 ft | 533 kts | 258° |
| 2026-04-10 08:48 | 54.08873 | 27.21868 | 36069 ft | 534 kts | 258° |
| 2026-04-10 08:49 | 54.07308 | 27.09519 | 36074 ft | 534 kts | 257° |
| 2026-04-10 08:49 | 54.05723 | 26.97247 | 36080 ft | 534 kts | 257° |
| 2026-04-10 08:50 | 54.04127 | 26.84921 | 36085 ft | 533 kts | 257° |
| 2026-04-10 08:50 | 54.02526 | 26.72559 | 36092 ft | 534 kts | 257° |
| 2026-04-10 08:51 | 54.00904 | 26.60222 | 36098 ft | 534 kts | 257° |
| 2026-04-10 08:51 | 53.99266 | 26.47906 | 36106 ft | 533 kts | 257° |
| 2026-04-10 08:52 | 53.97629 | 26.35703 | 36112 ft | 533 kts | 257° |
| 2026-04-10 08:52 | 53.95973 | 26.23446 | 36118 ft | 533 kts | 256° |
| 2026-04-10 08:53 | 53.94393 | 26.11135 | 36123 ft | 533 kts | 257° |
| 2026-04-10 08:53 | 53.92777 | 25.98850 | 36128 ft | 533 kts | 257° |
| 2026-04-10 08:54 | 53.91113 | 25.86568 | 36133 ft | 533 kts | 256° |
| 2026-04-10 08:54 | 53.89432 | 25.74313 | 36137 ft | 533 kts | 256° |
| 2026-04-10 08:55 | 53.87750 | 25.62145 | 36142 ft | 533 kts | 256° |
| 2026-04-10 08:55 | 53.86101 | 25.49828 | 36147 ft | 532 kts | 256° |
| 2026-04-10 08:56 | 53.84386 | 25.37734 | 36151 ft | 531 kts | 256° |
| 2026-04-10 08:56 | 53.82635 | 25.25574 | 36158 ft | 531 kts | 256° |
| 2026-04-10 08:57 | 53.80881 | 25.13414 | 36176 ft | 530 kts | 256° |
| 2026-04-10 08:57 | 53.79032 | 25.01346 | 36179 ft | 529 kts | 253° |
| 2026-04-10 08:58 | 53.76758 | 24.89506 | 36183 ft | 529 kts | 251° |
| 2026-04-10 08:58 | 53.74470 | 24.77769 | 36188 ft | 528 kts | 252° |
| 2026-04-10 08:59 | 53.72226 | 24.65950 | 36192 ft | 528 kts | 252° |
| 2026-04-10 08:59 | 53.70010 | 24.54126 | 36195 ft | 527 kts | 253° |
| 2026-04-10 09:00 | 53.67896 | 24.42271 | 36197 ft | 528 kts | 252° |
| 2026-04-10 09:00 | 53.65643 | 24.30570 | 36199 ft | 528 kts | 251° |
| 2026-04-10 09:01 | 53.63360 | 24.18801 | 36200 ft | 528 kts | 251° |
| 2026-04-10 09:01 | 53.61999 | 24.06742 | 36200 ft | 528 kts | 273° |
| 2026-04-10 09:01 | 53.62586 | 24.00653 | 36200 ft | 527 kts | 288° |
| 2026-04-10 09:02 | 53.64043 | 23.94998 | 36201 ft | 525 kts | 302° |
| 2026-04-10 09:02 | 53.66258 | 23.90154 | 36205 ft | 521 kts | 316° |
| 2026-04-10 09:02 | 53.68911 | 23.85999 | 36203 ft | 518 kts | 320° |
| 2026-04-10 09:03 | 53.73740 | 23.76957 | 36201 ft | 519 kts | 308° |
| 2026-04-10 09:03 | 53.77877 | 23.67020 | 36201 ft | 520 kts | 308° |
| 2026-04-10 09:04 | 53.83241 | 23.51134 | 36203 ft | 523 kts | 288° |
| 2026-04-10 09:04 | 53.83981 | 23.45098 | 36205 ft | 525 kts | 277° |
| 2026-04-10 09:04 | 53.84177 | 23.38926 | 36206 ft | 526 kts | 271° |
| 2026-04-10 09:05 | 53.84096 | 23.26550 | 36207 ft | 526 kts | 270° |
| 2026-04-10 09:05 | 53.84162 | 23.14174 | 36208 ft | 525 kts | 272° |
| 2026-04-10 09:06 | 53.84399 | 23.01827 | 36210 ft | 523 kts | 273° |
| 2026-04-10 09:06 | 53.84728 | 22.89514 | 36212 ft | 523 kts | 274° |
| 2026-04-10 09:07 | 53.85111 | 22.77302 | 36214 ft | 522 kts | 274° |
| 2026-04-10 09:07 | 53.85435 | 22.64999 | 36216 ft | 522 kts | 274° |
| 2026-04-10 09:08 | 53.85725 | 22.52716 | 36218 ft | 522 kts | 273° |
| 2026-04-10 09:08 | 53.85998 | 22.40428 | 36220 ft | 521 kts | 273° |
| 2026-04-10 09:09 | 53.86255 | 22.28138 | 36222 ft | 522 kts | 273° |
| 2026-04-10 09:09 | 53.86499 | 22.15852 | 36224 ft | 522 kts | 273° |
| 2026-04-10 09:10 | 53.86730 | 22.03625 | 36225 ft | 522 kts | 273° |
| 2026-04-10 09:10 | 53.86949 | 21.91331 | 36227 ft | 522 kts | 273° |
| 2026-04-10 09:11 | 53.87155 | 21.79041 | 36228 ft | 522 kts | 273° |
| 2026-04-10 09:11 | 53.87349 | 21.66749 | 36230 ft | 521 kts | 272° |
| 2026-04-10 09:12 | 53.87530 | 21.54501 | 36230 ft | 520 kts | 272° |
| 2026-04-10 09:12 | 53.87698 | 21.42236 | 36231 ft | 520 kts | 272° |
| 2026-04-10 09:13 | 53.87854 | 21.29985 | 36232 ft | 519 kts | 272° |
| 2026-04-10 09:13 | 53.87997 | 21.17756 | 36232 ft | 518 kts | 272° |
| 2026-04-10 09:14 | 53.88127 | 21.05540 | 36235 ft | 517 kts | 272° |
| 2026-04-10 09:14 | 53.88245 | 20.93341 | 36236 ft | 517 kts | 272° |
| 2026-04-10 09:15 | 53.88350 | 20.81181 | 36236 ft | 516 kts | 272° |
| 2026-04-10 09:15 | 53.88443 | 20.69076 | 36237 ft | 516 kts | 272° |
| 2026-04-10 09:16 | 53.88523 | 20.56922 | 36237 ft | 516 kts | 272° |
| 2026-04-10 09:16 | 53.88591 | 20.44761 | 36236 ft | 516 kts | 272° |
| 2026-04-10 09:17 | 53.88647 | 20.32598 | 36236 ft | 516 kts | 272° |
| 2026-04-10 09:17 | 53.88691 | 20.20457 | 36236 ft | 511 kts | 271° |
| 2026-04-10 09:18 | 53.88722 | 20.08434 | 36235 ft | 509 kts | 271° |
| 2026-04-10 09:18 | 53.88741 | 19.96410 | 36235 ft | 510 kts | 271° |
| 2026-04-10 09:19 | 53.88749 | 19.84447 | 36234 ft | 511 kts | 271° |
| 2026-04-10 09:19 | 53.88745 | 19.74357 | 36267 ft | 511 kts | 271° |
| 2026-04-10 09:20 | 53.88737 | 19.66377 | 36519 ft | 510 kts | 271° |
| 2026-04-10 09:20 | 53.88727 | 19.60376 | 36740 ft | 508 kts | 271° |
| 2026-04-10 09:20 | 53.88714 | 19.54388 | 36939 ft | 507 kts | 271° |
| 2026-04-10 09:20 | 53.88704 | 19.50345 | 37033 ft | 508 kts | 271° |
| 2026-04-10 09:21 | 53.88686 | 19.44360 | 37194 ft | 507 kts | 271° |
| 2026-04-10 09:21 | 53.88665 | 19.38460 | 37372 ft | 506 kts | 271° |
| 2026-04-10 09:21 | 53.88642 | 19.32488 | 37515 ft | 506 kts | 271° |
| 2026-04-10 09:21 | 53.88615 | 19.26518 | 37643 ft | 506 kts | 271° |
| 2026-04-10 09:22 | 53.88585 | 19.20553 | 37789 ft | 506 kts | 271° |
| 2026-04-10 09:22 | 53.88553 | 19.14588 | 37929 ft | 506 kts | 271° |
| 2026-04-10 09:22 | 53.88517 | 19.08625 | 38050 ft | 506 kts | 271° |
| 2026-04-10 09:22 | 53.88479 | 19.02658 | 38205 ft | 505 kts | 271° |
| 2026-04-10 09:23 | 53.88393 | 18.90742 | 38228 ft | 505 kts | 271° |
| 2026-04-10 09:23 | 53.88296 | 18.78859 | 38227 ft | 504 kts | 271° |
| 2026-04-10 09:24 | 53.88188 | 18.67053 | 38226 ft | 504 kts | 271° |
| 2026-04-10 09:24 | 53.88067 | 18.55169 | 38225 ft | 505 kts | 271° |
| 2026-04-10 09:25 | 53.87934 | 18.43257 | 38224 ft | 505 kts | 271° |
| 2026-04-10 09:25 | 53.87790 | 18.31334 | 38223 ft | 506 kts | 270° |
| 2026-04-10 09:26 | 53.87633 | 18.19415 | 38221 ft | 506 kts | 270° |
| 2026-04-10 09:26 | 53.87465 | 18.07468 | 38220 ft | 507 kts | 270° |
| 2026-04-10 09:27 | 53.87284 | 17.95525 | 38219 ft | 507 kts | 270° |
| 2026-04-10 09:27 | 53.87092 | 17.83581 | 38216 ft | 507 kts | 270° |
| 2026-04-10 09:28 | 53.86888 | 17.71631 | 38215 ft | 506 kts | 270° |
| 2026-04-10 09:28 | 53.86673 | 17.59766 | 38212 ft | 506 kts | 270° |
| 2026-04-10 09:29 | 53.86446 | 17.47868 | 38210 ft | 504 kts | 270° |
| 2026-04-10 09:29 | 53.86208 | 17.35997 | 38209 ft | 503 kts | 270° |
| 2026-04-10 09:30 | 53.85959 | 17.24183 | 38208 ft | 501 kts | 270° |
| 2026-04-10 09:30 | 53.85701 | 17.12452 | 38207 ft | 499 kts | 270° |
| 2026-04-10 09:31 | 53.85430 | 17.00707 | 38206 ft | 498 kts | 270° |
| 2026-04-10 09:31 | 53.85150 | 16.89015 | 38205 ft | 496 kts | 270° |
| 2026-04-10 09:32 | 53.84859 | 16.77351 | 38206 ft | 495 kts | 269° |
| 2026-04-10 09:32 | 53.84557 | 16.65714 | 38200 ft | 494 kts | 269° |
| 2026-04-10 09:33 | 53.84244 | 16.54095 | 38199 ft | 493 kts | 269° |
| 2026-04-10 09:33 | 53.83923 | 16.42565 | 38197 ft | 493 kts | 269° |
| 2026-04-10 09:34 | 53.83588 | 16.30964 | 38193 ft | 493 kts | 269° |
| 2026-04-10 09:34 | 53.83243 | 16.19376 | 38189 ft | 493 kts | 269° |
| 2026-04-10 09:35 | 53.82886 | 16.07786 | 38188 ft | 493 kts | 269° |
| 2026-04-10 09:35 | 53.82518 | 15.96193 | 38187 ft | 493 kts | 269° |
| 2026-04-10 09:36 | 53.82139 | 15.84601 | 38185 ft | 493 kts | 269° |
| 2026-04-10 09:36 | 53.81749 | 15.73017 | 38184 ft | 492 kts | 268° |
| 2026-04-10 09:37 | 53.81348 | 15.61448 | 38177 ft | 492 kts | 268° |
| 2026-04-10 09:37 | 53.80939 | 15.49957 | 38176 ft | 492 kts | 268° |
| 2026-04-10 09:38 | 53.80517 | 15.38403 | 38173 ft | 491 kts | 268° |
| 2026-04-10 09:38 | 53.80084 | 15.26897 | 38172 ft | 489 kts | 268° |
| 2026-04-10 09:39 | 53.79642 | 15.15413 | 38172 ft | 489 kts | 268° |
| 2026-04-10 09:39 | 53.79190 | 15.03949 | 38172 ft | 488 kts | 268° |
| 2026-04-10 09:40 | 53.78753 | 14.93114 | 38172 ft | 487 kts | 268° |
| 2026-04-10 09:40 | 53.78282 | 14.81678 | 38172 ft | 487 kts | 268° |
| 2026-04-10 09:41 | 53.77865 | 14.70255 | 38172 ft | 486 kts | 268° |
| 2026-04-10 09:41 | 53.77358 | 14.58843 | 38171 ft | 486 kts | 267° |
| 2026-04-10 09:42 | 53.76833 | 14.47532 | 38171 ft | 486 kts | 267° |
| 2026-04-10 09:42 | 53.76299 | 14.36144 | 38171 ft | 486 kts | 267° |
| 2026-04-10 09:43 | 53.75823 | 14.24743 | 38171 ft | 486 kts | 270° |
| 2026-04-10 09:43 | 53.75964 | 14.13315 | 38172 ft | 486 kts | 274° |
| 2026-04-10 09:44 | 53.76131 | 14.01896 | 38170 ft | 486 kts | 271° |
| 2026-04-10 09:44 | 53.76159 | 13.90479 | 38169 ft | 486 kts | 271° |
| 2026-04-10 09:45 | 53.76202 | 13.79060 | 38167 ft | 485 kts | 271° |
| 2026-04-10 09:45 | 53.76199 | 13.67714 | 38165 ft | 485 kts | 271° |
| 2026-04-10 09:46 | 53.76300 | 13.56316 | 38162 ft | 485 kts | 272° |
| 2026-04-10 09:46 | 53.76183 | 13.44936 | 38157 ft | 484 kts | 269° |
| 2026-04-10 09:47 | 53.76012 | 13.33544 | 38153 ft | 484 kts | 270° |
| 2026-04-10 09:47 | 53.75966 | 13.22188 | 38146 ft | 483 kts | 270° |
| 2026-04-10 09:48 | 53.75816 | 13.10835 | 38136 ft | 483 kts | 269° |
| 2026-04-10 09:48 | 53.75634 | 12.99482 | 38130 ft | 483 kts | 269° |
| 2026-04-10 09:49 | 53.75448 | 12.88134 | 38125 ft | 482 kts | 269° |
| 2026-04-10 09:49 | 53.75267 | 12.76868 | 38121 ft | 482 kts | 269° |
| 2026-04-10 09:50 | 53.75160 | 12.65535 | 38118 ft | 482 kts | 269° |
| 2026-04-10 09:50 | 53.75004 | 12.54214 | 38115 ft | 482 kts | 269° |
| 2026-04-10 09:51 | 53.74834 | 12.42876 | 38114 ft | 483 kts | 268° |
| 2026-04-10 09:51 | 53.74577 | 12.31534 | 38113 ft | 483 kts | 268° |
| 2026-04-10 09:52 | 53.74292 | 12.20184 | 38111 ft | 483 kts | 268° |
| 2026-04-10 09:52 | 53.74019 | 12.08853 | 38111 ft | 483 kts | 268° |
| 2026-04-10 09:53 | 53.73813 | 11.97497 | 38110 ft | 483 kts | 268° |
| 2026-04-10 09:53 | 53.73564 | 11.86165 | 38107 ft | 482 kts | 268° |
| 2026-04-10 09:54 | 53.73329 | 11.74851 | 38104 ft | 482 kts | 268° |
| 2026-04-10 09:54 | 53.73045 | 11.63543 | 38101 ft | 482 kts | 268° |
| 2026-04-10 09:55 | 53.72744 | 11.52237 | 38098 ft | 481 kts | 268° |
| 2026-04-10 09:55 | 53.72170 | 11.40992 | 38093 ft | 481 kts | 262° |
| 2026-04-10 09:56 | 53.70984 | 11.29969 | 38090 ft | 480 kts | 259° |
| 2026-04-10 09:56 | 53.69638 | 11.18907 | 38087 ft | 480 kts | 259° |
| 2026-04-10 09:57 | 53.68363 | 11.07841 | 38086 ft | 479 kts | 260° |
| 2026-04-10 09:57 | 53.67114 | 10.96795 | 38084 ft | 479 kts | 260° |
| 2026-04-10 09:58 | 53.65892 | 10.85767 | 38083 ft | 479 kts | 261° |
| 2026-04-10 09:58 | 53.64738 | 10.74712 | 38083 ft | 479 kts | 261° |
| 2026-04-10 09:59 | 53.63534 | 10.63757 | 38081 ft | 479 kts | 261° |
| 2026-04-10 09:59 | 53.62293 | 10.52733 | 38081 ft | 479 kts | 260° |
| 2026-04-10 10:00 | 53.61036 | 10.41705 | 38083 ft | 480 kts | 260° |
| 2026-04-10 10:00 | 53.59767 | 10.30676 | 38083 ft | 480 kts | 260° |
| 2026-04-10 10:01 | 53.58487 | 10.19648 | 38083 ft | 480 kts | 260° |
| 2026-04-10 10:01 | 53.57195 | 10.08613 | 38083 ft | 480 kts | 260° |
| 2026-04-10 10:02 | 53.55897 | 9.97605 | 38083 ft | 480 kts | 260° |
| 2026-04-10 10:02 | 53.54657 | 9.86646 | 38083 ft | 479 kts | 260° |
| 2026-04-10 10:03 | 53.53328 | 9.75672 | 38082 ft | 479 kts | 259° |
| 2026-04-10 10:03 | 53.51976 | 9.64712 | 38083 ft | 478 kts | 259° |
| 2026-04-10 10:04 | 53.49945 | 9.48338 | 38081 ft | 476 kts | 259° |
| 2026-04-10 10:05 | 53.48287 | 9.39526 | 38085 ft | 477 kts | 250° |
| 2026-04-10 10:05 | 53.45662 | 9.29293 | 38084 ft | 478 kts | 248° |
| 2026-04-10 10:06 | 53.42981 | 9.19093 | 38084 ft | 477 kts | 249° |
| 2026-04-10 10:06 | 53.40313 | 9.08906 | 38085 ft | 477 kts | 249° |
| 2026-04-10 10:07 | 53.37641 | 8.98713 | 38087 ft | 476 kts | 249° |
| 2026-04-10 10:07 | 53.34994 | 8.88625 | 38090 ft | 476 kts | 249° |
| 2026-04-10 10:08 | 53.32471 | 8.78415 | 38093 ft | 475 kts | 251° |
| 2026-04-10 10:08 | 53.30113 | 8.68101 | 38096 ft | 474 kts | 251° |
| 2026-04-10 10:09 | 53.27723 | 8.57841 | 38097 ft | 473 kts | 251° |
| 2026-04-10 10:09 | 53.25304 | 8.47607 | 38097 ft | 474 kts | 251° |
| 2026-04-10 10:10 | 53.22867 | 8.37391 | 38097 ft | 473 kts | 251° |
| 2026-04-10 10:10 | 53.20480 | 8.27160 | 38095 ft | 473 kts | 252° |
| 2026-04-10 10:11 | 53.18117 | 8.16929 | 38094 ft | 473 kts | 251° |
| 2026-04-10 10:11 | 53.15706 | 8.06720 | 38090 ft | 473 kts | 251° |
| 2026-04-10 10:12 | 53.13278 | 7.96551 | 38092 ft | 472 kts | 251° |
| 2026-04-10 10:12 | 53.10836 | 7.86402 | 38093 ft | 471 kts | 251° |
| 2026-04-10 10:13 | 53.08407 | 7.76361 | 38095 ft | 470 kts | 251° |
| 2026-04-10 10:13 | 53.05958 | 7.66284 | 38097 ft | 470 kts | 251° |
| 2026-04-10 10:14 | 53.03494 | 7.56199 | 38106 ft | 470 kts | 251° |
| 2026-04-10 10:14 | 53.01027 | 7.46144 | 38109 ft | 470 kts | 251° |
| 2026-04-10 10:15 | 52.98552 | 7.36103 | 38110 ft | 469 kts | 251° |
| 2026-04-10 10:15 | 52.96074 | 7.26097 | 38111 ft | 469 kts | 251° |
| 2026-04-10 10:16 | 52.93600 | 7.16148 | 38113 ft | 469 kts | 251° |
| 2026-04-10 10:16 | 52.91104 | 7.06161 | 38114 ft | 469 kts | 251° |
| 2026-04-10 10:17 | 52.88598 | 6.96177 | 38114 ft | 469 kts | 251° |
| 2026-04-10 10:17 | 52.86088 | 6.86223 | 38114 ft | 468 kts | 251° |
| 2026-04-10 10:18 | 52.83573 | 6.76290 | 38115 ft | 468 kts | 251° |
| 2026-04-10 10:18 | 52.81051 | 6.66377 | 38116 ft | 468 kts | 251° |
| 2026-04-10 10:19 | 52.78519 | 6.56469 | 38117 ft | 468 kts | 251° |
| 2026-04-10 10:19 | 52.75974 | 6.46553 | 38118 ft | 467 kts | 251° |
| 2026-04-10 10:20 | 52.73445 | 6.36740 | 38119 ft | 467 kts | 251° |
| 2026-04-10 10:20 | 52.70891 | 6.26877 | 38126 ft | 467 kts | 251° |
| 2026-04-10 10:21 | 52.68335 | 6.17062 | 38130 ft | 466 kts | 251° |
| 2026-04-10 10:21 | 52.65778 | 6.07246 | 38134 ft | 466 kts | 251° |
| 2026-04-10 10:22 | 52.63213 | 5.97461 | 38145 ft | 464 kts | 251° |
| 2026-04-10 10:22 | 52.60642 | 5.87716 | 38155 ft | 463 kts | 251° |
| 2026-04-10 10:23 | 52.58070 | 5.78000 | 38166 ft | 463 kts | 251° |
| 2026-04-10 10:23 | 52.55498 | 5.68300 | 38164 ft | 464 kts | 251° |
| 2026-04-10 10:24 | 52.52908 | 5.58588 | 38175 ft | 463 kts | 251° |
| 2026-04-10 10:24 | 52.50317 | 5.48916 | 38170 ft | 462 kts | 251° |
| 2026-04-10 10:25 | 52.47718 | 5.39270 | 38164 ft | 462 kts | 251° |
| 2026-04-10 10:25 | 52.45121 | 5.29665 | 38167 ft | 462 kts | 251° |
| 2026-04-10 10:26 | 52.42528 | 5.20103 | 38169 ft | 461 kts | 251° |
| 2026-04-10 10:26 | 52.39916 | 5.10522 | 38169 ft | 460 kts | 251° |
| 2026-04-10 10:27 | 52.37305 | 5.00980 | 38169 ft | 459 kts | 251° |
| 2026-04-10 10:27 | 52.34686 | 4.91448 | 38170 ft | 458 kts | 251° |
| 2026-04-10 10:28 | 52.32074 | 4.81978 | 38172 ft | 456 kts | 251° |
| 2026-04-10 10:28 | 52.29460 | 4.72547 | 38166 ft | 454 kts | 251° |
| 2026-04-10 10:29 | 52.26857 | 4.63183 | 38168 ft | 452 kts | 251° |
| 2026-04-10 10:29 | 52.24272 | 4.53917 | 38171 ft | 450 kts | 251° |
| 2026-04-10 10:30 | 52.21692 | 4.44694 | 38170 ft | 448 kts | 251° |
| 2026-04-10 10:30 | 52.19076 | 4.35404 | 38168 ft | 447 kts | 251° |
| 2026-04-10 10:31 | 52.16476 | 4.26211 | 38175 ft | 447 kts | 251° |
| 2026-04-10 10:31 | 52.13870 | 4.17030 | 38177 ft | 446 kts | 251° |
| 2026-04-10 10:32 | 52.11267 | 4.07888 | 38179 ft | 445 kts | 251° |
| 2026-04-10 10:32 | 52.08656 | 3.98754 | 38183 ft | 444 kts | 251° |
| 2026-04-10 10:33 | 52.06066 | 3.89726 | 38188 ft | 445 kts | 251° |
| 2026-04-10 10:33 | 52.03437 | 3.80599 | 38193 ft | 445 kts | 251° |
| 2026-04-10 10:34 | 52.00802 | 3.71485 | 38197 ft | 446 kts | 251° |
| 2026-04-10 10:34 | 51.98207 | 3.62501 | 38201 ft | 446 kts | 251° |
| 2026-04-10 10:35 | 51.95596 | 3.53364 | 38201 ft | 447 kts | 251° |
| 2026-04-10 10:35 | 51.92925 | 3.44276 | 38200 ft | 447 kts | 250° |
| 2026-04-10 10:36 | 51.90242 | 3.35213 | 38200 ft | 441 kts | 250° |
| 2026-04-10 10:36 | 51.87626 | 3.26390 | 38201 ft | 432 kts | 250° |
| 2026-04-10 10:37 | 51.85222 | 3.17548 | 38198 ft | 421 kts | 257° |
| 2026-04-10 10:37 | 51.84197 | 3.08369 | 38201 ft | 419 kts | 269° |
| 2026-04-10 10:38 | 51.83756 | 2.98985 | 38203 ft | 418 kts | 269° |
| 2026-04-10 10:38 | 51.83167 | 2.89653 | 38204 ft | 418 kts | 268° |
| 2026-04-10 10:39 | 51.82523 | 2.80275 | 38208 ft | 418 kts | 268° |
| 2026-04-10 10:39 | 51.81887 | 2.70925 | 38210 ft | 418 kts | 268° |
| 2026-04-10 10:40 | 51.81271 | 2.61566 | 38211 ft | 418 kts | 268° |
| 2026-04-10 10:40 | 51.80972 | 2.56947 | 38029 ft | 419 kts | 268° |
| 2026-04-10 10:40 | 51.80648 | 2.52236 | 37447 ft | 416 kts | 268° |
| 2026-04-10 10:40 | 51.80318 | 2.47591 | 36777 ft | 413 kts | 268° |
| 2026-04-10 10:41 | 51.79989 | 2.43002 | 36171 ft | 409 kts | 269° |
| 2026-04-10 10:41 | 51.79665 | 2.38513 | 35532 ft | 405 kts | 269° |
| 2026-04-10 10:41 | 51.79343 | 2.34064 | 35087 ft | 397 kts | 269° |
| 2026-04-10 10:41 | 51.79025 | 2.29670 | 34681 ft | 388 kts | 270° |
| 2026-04-10 10:42 | 51.78716 | 2.25385 | 34273 ft | 380 kts | 270° |
| 2026-04-10 10:42 | 51.78413 | 2.21175 | 33837 ft | 373 kts | 271° |
| 2026-04-10 10:42 | 51.78152 | 2.17052 | 33290 ft | 368 kts | 271° |
| 2026-04-10 10:42 | 51.77922 | 2.12943 | 32705 ft | 365 kts | 271° |
| 2026-04-10 10:43 | 51.77724 | 2.08877 | 32195 ft | 361 kts | 271° |
| 2026-04-10 10:43 | 51.77518 | 2.04846 | 31718 ft | 356 kts | 271° |
| 2026-04-10 10:43 | 51.77295 | 2.00893 | 31207 ft | 353 kts | 270° |
| 2026-04-10 10:43 | 51.77058 | 1.96964 | 30661 ft | 351 kts | 269° |
| 2026-04-10 10:44 | 51.76816 | 1.93048 | 30163 ft | 347 kts | 269° |
| 2026-04-10 10:44 | 51.76574 | 1.89184 | 29673 ft | 344 kts | 269° |
| 2026-04-10 10:44 | 51.76333 | 1.85362 | 29171 ft | 341 kts | 269° |
| 2026-04-10 10:44 | 51.76092 | 1.81556 | 28640 ft | 339 kts | 269° |
| 2026-04-10 10:45 | 51.75853 | 1.77787 | 28202 ft | 335 kts | 268° |
| 2026-04-10 10:45 | 51.75617 | 1.74069 | 27737 ft | 332 kts | 269° |
| 2026-04-10 10:45 | 51.75382 | 1.70371 | 27186 ft | 331 kts | 269° |
| 2026-04-10 10:45 | 51.75148 | 1.66679 | 26677 ft | 329 kts | 268° |
| 2026-04-10 10:46 | 51.74917 | 1.63032 | 26217 ft | 326 kts | 268° |
| 2026-04-10 10:46 | 51.74684 | 1.59393 | 25720 ft | 324 kts | 268° |
| 2026-04-10 10:46 | 51.74453 | 1.55831 | 25274 ft | 321 kts | 268° |
| 2026-04-10 10:46 | 51.74216 | 1.52226 | 24811 ft | 319 kts | 268° |
| 2026-04-10 10:47 | 51.73980 | 1.48664 | 24294 ft | 318 kts | 268° |
| 2026-04-10 10:47 | 51.73760 | 1.45142 | 23864 ft | 315 kts | 268° |
| 2026-04-10 10:47 | 51.73564 | 1.41626 | 23336 ft | 314 kts | 268° |
| 2026-04-10 10:47 | 51.73354 | 1.38109 | 22791 ft | 315 kts | 268° |
| 2026-04-10 10:48 | 51.73133 | 1.34652 | 22514 ft | 310 kts | 267° |
| 2026-04-10 10:48 | 51.72902 | 1.31183 | 22393 ft | 311 kts | 267° |
| 2026-04-10 10:48 | 51.72666 | 1.27707 | 22327 ft | 314 kts | 266° |
| 2026-04-10 10:48 | 51.72424 | 1.24189 | 22265 ft | 315 kts | 266° |
| 2026-04-10 10:49 | 51.72180 | 1.20669 | 22216 ft | 315 kts | 266° |
| 2026-04-10 10:49 | 51.71935 | 1.17155 | 22218 ft | 316 kts | 266° |
| 2026-04-10 10:49 | 51.71690 | 1.13637 | 22219 ft | 316 kts | 266° |
| 2026-04-10 10:49 | 51.71444 | 1.10129 | 22219 ft | 315 kts | 266° |
| 2026-04-10 10:50 | 51.71281 | 1.07797 | 22220 ft | 315 kts | 266° |
| 2026-04-10 10:50 | 51.71036 | 1.04302 | 21996 ft | 312 kts | 266° |
| 2026-04-10 10:50 | 51.70798 | 1.00900 | 21941 ft | 299 kts | 266° |
| 2026-04-10 10:50 | 51.70571 | 0.97639 | 21880 ft | 287 kts | 266° |
| 2026-04-10 10:51 | 51.70359 | 0.94597 | 21606 ft | 270 kts | 267° |
| 2026-04-10 10:51 | 51.70441 | 0.91619 | 21038 ft | 264 kts | 281° |
| 2026-04-10 10:51 | 51.71159 | 0.88915 | 20280 ft | 264 kts | 298° |
| 2026-04-10 10:51 | 51.72368 | 0.86900 | 19556 ft | 273 kts | 314° |
| 2026-04-10 10:52 | 51.74077 | 0.85565 | 18791 ft | 287 kts | 333° |
| 2026-04-10 10:52 | 51.75949 | 0.85202 | 18074 ft | 304 kts | 350° |
| 2026-04-10 10:52 | 51.77839 | 0.85765 | 17386 ft | 318 kts | 8° |
| 2026-04-10 10:52 | 51.79869 | 0.87517 | 16593 ft | 331 kts | 28° |
| 2026-04-10 10:53 | 51.81403 | 0.90265 | 16235 ft | 326 kts | 52° |
| 2026-04-10 10:53 | 51.81750 | 0.91369 | 16217 ft | 326 kts | 61° |
| 2026-04-10 10:53 | 51.82183 | 0.94134 | 16219 ft | 327 kts | 81° |
| 2026-04-10 10:53 | 51.82208 | 0.95354 | 16218 ft | 330 kts | 90° |
| 2026-04-10 10:54 | 51.82207 | 0.95383 | 16218 ft | 330 kts | 90° |
| 2026-04-10 10:54 | 51.81664 | 0.99165 | 16222 ft | 339 kts | 116° |
| 2026-04-10 10:54 | 51.80331 | 1.02269 | 16220 ft | 337 kts | 140° |
| 2026-04-10 10:54 | 51.78418 | 1.04334 | 16216 ft | 323 kts | 164° |
| 2026-04-10 10:55 | 51.76304 | 1.05029 | 16217 ft | 302 kts | 188° |
| 2026-04-10 10:55 | 51.74333 | 1.04336 | 16219 ft | 283 kts | 212° |
| 2026-04-10 10:55 | 51.72775 | 1.02538 | 16229 ft | 273 kts | 230° |
| 2026-04-10 10:55 | 51.71590 | 1.00176 | 16228 ft | 270 kts | 241° |
| 2026-04-10 10:56 | 51.70703 | 0.97550 | 16219 ft | 264 kts | 250° |
| 2026-04-10 10:56 | 51.70255 | 0.94723 | 16217 ft | 259 kts | 265° |
| 2026-04-10 10:56 | 51.70164 | 0.91873 | 16023 ft | 256 kts | 267° |
| 2026-04-10 10:56 | 51.70009 | 0.89011 | 15713 ft | 254 kts | 265° |
| 2026-04-10 10:57 | 51.69810 | 0.86151 | 15270 ft | 257 kts | 264° |
| 2026-04-10 10:57 | 51.69595 | 0.83277 | 14855 ft | 260 kts | 264° |
| 2026-04-10 10:57 | 51.69384 | 0.80402 | 14551 ft | 258 kts | 264° |
| 2026-04-10 10:57 | 51.69176 | 0.77534 | 14240 ft | 256 kts | 264° |
| 2026-04-10 10:58 | 51.68972 | 0.74683 | 13875 ft | 257 kts | 264° |
| 2026-04-10 10:58 | 51.68766 | 0.71816 | 13510 ft | 258 kts | 264° |
| 2026-04-10 10:58 | 51.68562 | 0.68984 | 13144 ft | 259 kts | 264° |
| 2026-04-10 10:58 | 51.68360 | 0.66097 | 12785 ft | 259 kts | 264° |
| 2026-04-10 10:59 | 51.68158 | 0.63209 | 12443 ft | 259 kts | 264° |
| 2026-04-10 10:59 | 51.67951 | 0.60322 | 12078 ft | 261 kts | 263° |
| 2026-04-10 10:59 | 51.67738 | 0.57411 | 11749 ft | 260 kts | 263° |
| 2026-04-10 10:59 | 51.67527 | 0.54524 | 11463 ft | 259 kts | 263° |
| 2026-04-10 11:00 | 51.67316 | 0.51653 | 11131 ft | 259 kts | 263° |
| 2026-04-10 11:00 | 51.67146 | 0.49346 | 10885 ft | 258 kts | 263° |
| 2026-04-10 11:00 | 51.66940 | 0.46431 | 10548 ft | 258 kts | 264° |
| 2026-04-10 11:00 | 51.66745 | 0.43608 | 10262 ft | 256 kts | 264° |
| 2026-04-10 11:01 | 51.66541 | 0.40760 | 9905 ft | 258 kts | 263° |
| 2026-04-10 11:01 | 51.66330 | 0.37880 | 9565 ft | 258 kts | 263° |
| 2026-04-10 11:01 | 51.66115 | 0.35017 | 9297 ft | 256 kts | 263° |
| 2026-04-10 11:01 | 51.65899 | 0.32186 | 9055 ft | 253 kts | 263° |
| 2026-04-10 11:02 | 51.65686 | 0.29382 | 8757 ft | 252 kts | 263° |
| 2026-04-10 11:02 | 51.65472 | 0.26568 | 8426 ft | 253 kts | 263° |
| 2026-04-10 11:02 | 51.65258 | 0.23771 | 8133 ft | 251 kts | 263° |
| 2026-04-10 11:02 | 51.65045 | 0.20982 | 7838 ft | 250 kts | 263° |
| 2026-04-10 11:03 | 51.64832 | 0.18254 | 7748 ft | 241 kts | 262° |
| 2026-04-10 11:03 | 51.64360 | 0.15674 | 7479 ft | 240 kts | 248° |
| 2026-04-10 11:03 | 51.63540 | 0.13360 | 7327 ft | 235 kts | 239° |
| 2026-04-10 11:03 | 51.62599 | 0.11230 | 7096 ft | 233 kts | 235° |
| 2026-04-10 11:04 | 51.61586 | 0.09206 | 6861 ft | 232 kts | 232° |
| 2026-04-10 11:04 | 51.60538 | 0.07236 | 6585 ft | 231 kts | 231° |
| 2026-04-10 11:04 | 51.59484 | 0.05278 | 6368 ft | 228 kts | 231° |
| 2026-04-10 11:04 | 51.58476 | 0.03395 | 6229 ft | 221 kts | 231° |
| 2026-04-10 11:05 | 51.56476 | -0.00362 | 5604 ft | 221 kts | 231° |
| 2026-04-10 11:05 | 51.55483 | -0.02234 | 5415 ft | 215 kts | 230° |
| 2026-04-10 11:05 | 51.54538 | -0.04016 | 5335 ft | 205 kts | 230° |
| 2026-04-10 11:06 | 51.53631 | -0.05725 | 5211 ft | 196 kts | 230° |
| 2026-04-10 11:06 | 51.52762 | -0.07364 | 5047 ft | 189 kts | 230° |
| 2026-04-10 11:06 | 51.51909 | -0.08969 | 4706 ft | 191 kts | 230° |
| 2026-04-10 11:06 | 51.51040 | -0.10610 | 4357 ft | 195 kts | 230° |
| 2026-04-10 11:07 | 51.50161 | -0.12268 | 4110 ft | 193 kts | 230° |
| 2026-04-10 11:07 | 51.49289 | -0.13910 | 3833 ft | 193 kts | 229° |
| 2026-04-10 11:07 | 51.48424 | -0.15545 | 3587 ft | 192 kts | 230° |
| 2026-04-10 11:07 | 51.47792 | -0.17410 | 3311 ft | 193 kts | 251° |
| 2026-04-10 11:08 | 51.47712 | -0.19523 | 3081 ft | 189 kts | 269° |
| 2026-04-10 11:08 | 51.47777 | -0.21667 | 2818 ft | 196 kts | 272° |
| 2026-04-10 11:08 | 51.47819 | -0.23892 | 2437 ft | 202 kts | 270° |
| 2026-04-10 11:08 | 51.47824 | -0.26090 | 2177 ft | 195 kts | 269° |
| 2026-04-10 11:09 | 51.47819 | -0.28218 | 1931 ft | 182 kts | 268° |
| 2026-04-10 11:09 | 51.47813 | -0.30147 | 1706 ft | 169 kts | 268° |
| 2026-04-10 11:09 | 51.47806 | -0.31986 | 1491 ft | 156 kts | 268° |
| 2026-04-10 11:09 | 51.47801 | -0.33630 | 1295 ft | 144 kts | 268° |
| 2026-04-10 11:10 | 51.47796 | -0.35209 | 1140 ft | 140 kts | 268° |
| 2026-04-10 11:10 | 51.47790 | -0.36759 | 921 ft | 140 kts | 268° |
| 2026-04-10 11:10 | 51.47785 | -0.38323 | 734 ft | 140 kts | 268° |
| 2026-04-10 11:10 | 51.47780 | -0.39882 | 547 ft | 140 kts | 268° |
| 2026-04-10 11:11 | 51.47775 | -0.41458 | 363 ft | 141 kts | 268° |
| 2026-04-10 11:11 | 51.47769 | -0.43041 | 184 ft | 142 kts | 268° |
| 2026-04-10 11:11 | 51.47763 | -0.44571 | 99 ft | 123 kts | 268° |
| 2026-04-10 11:11 | 51.47759 | -0.45757 | 97 ft | 89 kts | 269° |
| 2026-04-10 11:12 | 51.47759 | -0.46552 | 97 ft | 53 kts | 269° |
| 2026-04-10 11:12 | 51.47754 | -0.46961 | 97 ft | 29 kts | 269° |
| 2026-04-10 11:12 | 51.47733 | -0.47105 | 97 ft | 5 kts | 219° |
| 2026-04-10 11:12 | 51.47703 | -0.47108 | 97 ft | 4 kts | 159° |
| 2026-04-10 11:13 | 51.47679 | -0.47084 | 97 ft | 4 kts | 146° |
| 2026-04-10 11:13 | 51.47658 | -0.47061 | 97 ft | 3 kts | 147° |
| 2026-04-10 11:13 | 51.47639 | -0.47041 | 97 ft | 3 kts | 147° |
| 2026-04-10 11:13 | 51.47622 | -0.47023 | 97 ft | 3 kts | 147° |
| 2026-04-10 11:14 | 51.47607 | -0.47007 | 97 ft | 2 kts | 144° |
| 2026-04-10 11:14 | 51.47584 | -0.46978 | 97 ft | 8 kts | 141° |
| 2026-04-10 11:14 | 51.47520 | -0.46900 | 97 ft | 12 kts | 158° |
| 2026-04-10 11:14 | 51.47424 | -0.46877 | 97 ft | 15 kts | 173° |
| 2026-04-10 11:15 | 51.47322 | -0.46864 | 97 ft | 13 kts | 180° |
| 2026-04-10 11:15 | 51.47236 | -0.46866 | 97 ft | 12 kts | 180° |
| 2026-04-10 11:15 | 51.47157 | -0.46866 | 97 ft | 10 kts | 179° |
| 2026-04-10 11:15 | 51.47087 | -0.46865 | 97 ft | 10 kts | 179° |
| 2026-04-10 11:16 | 51.47044 | -0.46864 | 97 ft | 0 kts | 179° |
| 2026-04-10 11:17 | 51.47042 | -0.46864 | 97 ft | 2 kts | 179° |
| 2026-04-10 11:17 | 51.47013 | -0.46864 | 97 ft | 7 kts | 180° |
| 2026-04-10 11:17 | 51.46950 | -0.46864 | 97 ft | 11 kts | 180° |
| 2026-04-10 11:18 | 51.46871 | -0.46863 | 97 ft | 10 kts | 179° |
| 2026-04-10 11:18 | 51.46801 | -0.46862 | 97 ft | 10 kts | 180° |
| 2026-04-10 11:18 | 51.46735 | -0.46863 | 97 ft | 9 kts | 180° |
| 2026-04-10 11:18 | 51.46673 | -0.46845 | 97 ft | 9 kts | 143° |
| 2026-04-10 11:19 | 51.46655 | -0.46743 | 97 ft | 11 kts | 91° |
| 2026-04-10 11:19 | 51.46657 | -0.46622 | 97 ft | 12 kts | 89° |
| 2026-04-10 11:19 | 51.46659 | -0.46482 | 97 ft | 13 kts | 89° |
| 2026-04-10 11:19 | 51.46660 | -0.46323 | 97 ft | 15 kts | 89° |
| 2026-04-10 11:20 | 51.46661 | -0.46149 | 97 ft | 16 kts | 90° |
| 2026-04-10 11:20 | 51.46656 | -0.45994 | 97 ft | 13 kts | 108° |
| 2026-04-10 11:20 | 51.46595 | -0.45892 | 97 ft | 13 kts | 147° |
| 2026-04-10 11:20 | 51.46518 | -0.45811 | 97 ft | 14 kts | 146° |
| 2026-04-10 11:21 | 51.46439 | -0.45725 | 97 ft | 12 kts | 144° |
| 2026-04-10 11:21 | 51.46391 | -0.45670 | 97 ft | 9 kts | 146° |
| 2026-04-10 11:21 | 51.46376 | -0.45654 | 97 ft | 0 kts | 146° |
| 2026-04-10 11:21 | 51.46371 | -0.45648 | 97 ft | 2 kts | 146° |
| 2026-04-10 11:22 | 51.46364 | -0.45641 | 97 ft | 0 kts | 146° |
| 2026-04-10 11:22 | 51.46357 | -0.45633 | 97 ft | 3 kts | 146° |
| 2026-04-10 11:22 | 51.46335 | -0.45609 | 97 ft | 6 kts | 146° |
| 2026-04-10 11:22 | 51.46283 | -0.45555 | 97 ft | 11 kts | 146° |
| 2026-04-10 11:23 | 51.46204 | -0.45470 | 97 ft | 15 kts | 146° |
| 2026-04-10 11:23 | 51.46119 | -0.45374 | 97 ft | 14 kts | 145° |
| 2026-04-10 11:23 | 51.46050 | -0.45325 | 97 ft | 11 kts | 179° |
| 2026-04-10 11:23 | 51.45978 | -0.45325 | 97 ft | 10 kts | 181° |
| 2026-04-10 11:24 | 51.45911 | -0.45328 | 97 ft | 9 kts | 184° |
| 2026-04-10 11:24 | 51.45847 | -0.45331 | 97 ft | 9 kts | 179° |
| 2026-04-10 11:24 | 51.45787 | -0.45327 | 97 ft | 8 kts | 177° |
| 2026-04-10 11:24 | 51.45732 | -0.45300 | 97 ft | 8 kts | 148° |
| 2026-04-10 11:25 | 51.45691 | -0.45233 | 97 ft | 9 kts | 118° |
| 2026-04-10 11:25 | 51.45674 | -0.45132 | 97 ft | 10 kts | 91° |
| 2026-04-10 11:25 | 51.45683 | -0.45017 | 97 ft | 9 kts | 80° |
| 2026-04-10 11:25 | 51.45703 | -0.44931 | 97 ft | 6 kts | 58° |
| 2026-04-10 11:26 | 51.45736 | -0.44909 | 97 ft | 5 kts | 351° |
| 2026-04-10 11:26 | 51.45767 | -0.44931 | 97 ft | 4 kts | 329° |
| 2026-04-10 11:26 | 51.45780 | -0.44943 | 97 ft | 1 kts | 330° |
| 2026-04-10 11:28 | 51.45781 | -0.44943 | 97 ft | 0 kts | 330° |
| 2026-04-10 11:31 | 51.45781 | -0.44944 | 97 ft | 0 kts | 330° |
| 2026-04-10 11:32 | 51.45784 | -0.44947 | 97 ft | 0 kts | 330° |